<?xml version="1.0" encoding="UTF-8" standalone="no" ?>
<gpx xmlns="http://www.topografix.com/GPX/1/1" xmlns:xsi="http://www.w3.org/2001/XMLSchema-instance" xsi:schemaLocation="http://www.topografix.com/GPX/1/1 http://www.topografix.com/GPX/1/1/gpx.xsd" version="1.1" creator="VisuGPX - https://www.visugpx.com">
  <metadata>
    <name>Courmes</name>
    <desc><![CDATA[Rando tres sympa]]></desc>
  </metadata>
  <trk>
    <name><![CDATA[tracks.21.11]]></name>
    <trkseg>
      <trkpt lat="43.74399" lon="7.00896">
        <ele>622</ele>
        <time>2009-11-21T09:39:54Z</time>
      </trkpt>
      <trkpt lat="43.74386" lon="7.0093">
        <ele>633</ele>
        <time>2009-11-21T09:39:58Z</time>
      </trkpt>
      <trkpt lat="43.74384" lon="7.00936">
        <ele>633</ele>
        <time>2009-11-21T09:40:10Z</time>
      </trkpt>
      <trkpt lat="43.74376" lon="7.00949">
        <ele>632</ele>
        <time>2009-11-21T09:40:20Z</time>
      </trkpt>
      <trkpt lat="43.74368" lon="7.00965">
        <ele>632</ele>
        <time>2009-11-21T09:40:30Z</time>
      </trkpt>
      <trkpt lat="43.74358" lon="7.00968">
        <ele>632</ele>
        <time>2009-11-21T09:40:40Z</time>
      </trkpt>
      <trkpt lat="43.74347" lon="7.00959">
        <ele>635</ele>
        <time>2009-11-21T09:40:50Z</time>
      </trkpt>
      <trkpt lat="43.74328" lon="7.00956">
        <ele>638</ele>
        <time>2009-11-21T09:41:01Z</time>
      </trkpt>
      <trkpt lat="43.74316" lon="7.00962">
        <ele>638</ele>
        <time>2009-11-21T09:41:12Z</time>
      </trkpt>
      <trkpt lat="43.74309" lon="7.00969">
        <ele>638</ele>
        <time>2009-11-21T09:41:25Z</time>
      </trkpt>
      <trkpt lat="43.74306" lon="7.00976">
        <ele>638</ele>
        <time>2009-11-21T09:41:35Z</time>
      </trkpt>
      <trkpt lat="43.743" lon="7.00985">
        <ele>638</ele>
        <time>2009-11-21T09:41:46Z</time>
      </trkpt>
      <trkpt lat="43.74296" lon="7.00993">
        <ele>638</ele>
        <time>2009-11-21T09:41:56Z</time>
      </trkpt>
      <trkpt lat="43.74287" lon="7.01001">
        <ele>638</ele>
        <time>2009-11-21T09:42:06Z</time>
      </trkpt>
      <trkpt lat="43.74277" lon="7.01007">
        <ele>638</ele>
        <time>2009-11-21T09:42:16Z</time>
      </trkpt>
      <trkpt lat="43.74265" lon="7.01022">
        <ele>638</ele>
        <time>2009-11-21T09:42:26Z</time>
      </trkpt>
      <trkpt lat="43.74253" lon="7.01036">
        <ele>639</ele>
        <time>2009-11-21T09:42:37Z</time>
      </trkpt>
      <trkpt lat="43.7425" lon="7.01048">
        <ele>642</ele>
        <time>2009-11-21T09:42:47Z</time>
      </trkpt>
      <trkpt lat="43.74244" lon="7.01062">
        <ele>645</ele>
        <time>2009-11-21T09:42:58Z</time>
      </trkpt>
      <trkpt lat="43.74243" lon="7.01066">
        <ele>646</ele>
        <time>2009-11-21T09:43:16Z</time>
      </trkpt>
      <trkpt lat="43.74244" lon="7.01081">
        <ele>648</ele>
        <time>2009-11-21T09:43:27Z</time>
      </trkpt>
      <trkpt lat="43.74235" lon="7.01094">
        <ele>650</ele>
        <time>2009-11-21T09:43:38Z</time>
      </trkpt>
      <trkpt lat="43.74227" lon="7.01099">
        <ele>652</ele>
        <time>2009-11-21T09:43:51Z</time>
      </trkpt>
      <trkpt lat="43.74225" lon="7.01094">
        <ele>658</ele>
        <time>2009-11-21T09:44:03Z</time>
      </trkpt>
      <trkpt lat="43.74225" lon="7.01091">
        <ele>662</ele>
        <time>2009-11-21T09:44:22Z</time>
      </trkpt>
      <trkpt lat="43.74225" lon="7.01093">
        <ele>662</ele>
        <time>2009-11-21T09:44:46Z</time>
      </trkpt>
      <trkpt lat="43.74227" lon="7.01092">
        <ele>664</ele>
        <time>2009-11-21T09:45:04Z</time>
      </trkpt>
      <trkpt lat="43.74229" lon="7.01092">
        <ele>664</ele>
        <time>2009-11-21T09:45:17Z</time>
      </trkpt>
      <trkpt lat="43.74232" lon="7.01104">
        <ele>662</ele>
        <time>2009-11-21T09:45:27Z</time>
      </trkpt>
      <trkpt lat="43.74242" lon="7.01118">
        <ele>662</ele>
        <time>2009-11-21T09:45:38Z</time>
      </trkpt>
      <trkpt lat="43.74238" lon="7.01131">
        <ele>662</ele>
        <time>2009-11-21T09:45:48Z</time>
      </trkpt>
      <trkpt lat="43.74226" lon="7.01132">
        <ele>666</ele>
        <time>2009-11-21T09:45:59Z</time>
      </trkpt>
      <trkpt lat="43.7422" lon="7.0113">
        <ele>667</ele>
        <time>2009-11-21T09:46:11Z</time>
      </trkpt>
      <trkpt lat="43.74216" lon="7.01129">
        <ele>672</ele>
        <time>2009-11-21T09:46:23Z</time>
      </trkpt>
      <trkpt lat="43.74214" lon="7.0113">
        <ele>673</ele>
        <time>2009-11-21T09:46:47Z</time>
      </trkpt>
      <trkpt lat="43.74214" lon="7.01128">
        <ele>677</ele>
        <time>2009-11-21T09:47:05Z</time>
      </trkpt>
      <trkpt lat="43.74231" lon="7.01115">
        <ele>674</ele>
        <time>2009-11-21T09:47:15Z</time>
      </trkpt>
      <trkpt lat="43.74216" lon="7.01101">
        <ele>669</ele>
        <time>2009-11-21T09:47:26Z</time>
      </trkpt>
      <trkpt lat="43.74204" lon="7.01106">
        <ele>667</ele>
        <time>2009-11-21T09:47:36Z</time>
      </trkpt>
      <trkpt lat="43.74195" lon="7.01114">
        <ele>664</ele>
        <time>2009-11-21T09:47:46Z</time>
      </trkpt>
      <trkpt lat="43.74189" lon="7.01122">
        <ele>661</ele>
        <time>2009-11-21T09:47:57Z</time>
      </trkpt>
      <trkpt lat="43.74188" lon="7.01123">
        <ele>661</ele>
        <time>2009-11-21T09:48:09Z</time>
      </trkpt>
      <trkpt lat="43.7418" lon="7.01125">
        <ele>662</ele>
        <time>2009-11-21T09:48:21Z</time>
      </trkpt>
      <trkpt lat="43.74177" lon="7.01128">
        <ele>666</ele>
        <time>2009-11-21T09:48:31Z</time>
      </trkpt>
      <trkpt lat="43.74177" lon="7.01133">
        <ele>662</ele>
        <time>2009-11-21T09:48:41Z</time>
      </trkpt>
      <trkpt lat="43.7417" lon="7.01137">
        <ele>661</ele>
        <time>2009-11-21T09:48:52Z</time>
      </trkpt>
      <trkpt lat="43.74169" lon="7.01144">
        <ele>661</ele>
        <time>2009-11-21T09:49:03Z</time>
      </trkpt>
      <trkpt lat="43.74168" lon="7.01155">
        <ele>666</ele>
        <time>2009-11-21T09:49:13Z</time>
      </trkpt>
      <trkpt lat="43.74165" lon="7.01166">
        <ele>668</ele>
        <time>2009-11-21T09:49:23Z</time>
      </trkpt>
      <trkpt lat="43.74155" lon="7.01162">
        <ele>678</ele>
        <time>2009-11-21T09:49:34Z</time>
      </trkpt>
      <trkpt lat="43.74146" lon="7.01158">
        <ele>679</ele>
        <time>2009-11-21T09:49:45Z</time>
      </trkpt>
      <trkpt lat="43.74143" lon="7.01154">
        <ele>680</ele>
        <time>2009-11-21T09:49:55Z</time>
      </trkpt>
      <trkpt lat="43.74136" lon="7.01143">
        <ele>684</ele>
        <time>2009-11-21T09:50:06Z</time>
      </trkpt>
      <trkpt lat="43.74129" lon="7.01144">
        <ele>684</ele>
        <time>2009-11-21T09:50:17Z</time>
      </trkpt>
      <trkpt lat="43.74128" lon="7.01149">
        <ele>684</ele>
        <time>2009-11-21T09:50:27Z</time>
      </trkpt>
      <trkpt lat="43.74125" lon="7.01142">
        <ele>684</ele>
        <time>2009-11-21T09:50:38Z</time>
      </trkpt>
      <trkpt lat="43.74119" lon="7.01139">
        <ele>684</ele>
        <time>2009-11-21T09:50:50Z</time>
      </trkpt>
      <trkpt lat="43.74114" lon="7.01146">
        <ele>685</ele>
        <time>2009-11-21T09:51:01Z</time>
      </trkpt>
      <trkpt lat="43.74109" lon="7.01141">
        <ele>685</ele>
        <time>2009-11-21T09:51:12Z</time>
      </trkpt>
      <trkpt lat="43.741" lon="7.0114">
        <ele>686</ele>
        <time>2009-11-21T09:51:22Z</time>
      </trkpt>
      <trkpt lat="43.74091" lon="7.01138">
        <ele>688</ele>
        <time>2009-11-21T09:51:34Z</time>
      </trkpt>
      <trkpt lat="43.74087" lon="7.01143">
        <ele>688</ele>
        <time>2009-11-21T09:51:45Z</time>
      </trkpt>
      <trkpt lat="43.74082" lon="7.01148">
        <ele>687</ele>
        <time>2009-11-21T09:51:58Z</time>
      </trkpt>
      <trkpt lat="43.74074" lon="7.0115">
        <ele>688</ele>
        <time>2009-11-21T09:52:09Z</time>
      </trkpt>
      <trkpt lat="43.74065" lon="7.01154">
        <ele>695</ele>
        <time>2009-11-21T09:52:20Z</time>
      </trkpt>
      <trkpt lat="43.74057" lon="7.01157">
        <ele>700</ele>
        <time>2009-11-21T09:52:30Z</time>
      </trkpt>
      <trkpt lat="43.74048" lon="7.0116">
        <ele>703</ele>
        <time>2009-11-21T09:52:40Z</time>
      </trkpt>
      <trkpt lat="43.7405" lon="7.01164">
        <ele>703</ele>
        <time>2009-11-21T09:52:53Z</time>
      </trkpt>
      <trkpt lat="43.74046" lon="7.01175">
        <ele>703</ele>
        <time>2009-11-21T09:53:03Z</time>
      </trkpt>
      <trkpt lat="43.74039" lon="7.01181">
        <ele>703</ele>
        <time>2009-11-21T09:53:13Z</time>
      </trkpt>
      <trkpt lat="43.74031" lon="7.01191">
        <ele>703</ele>
        <time>2009-11-21T09:53:23Z</time>
      </trkpt>
      <trkpt lat="43.7402" lon="7.01205">
        <ele>702</ele>
        <time>2009-11-21T09:53:34Z</time>
      </trkpt>
      <trkpt lat="43.74012" lon="7.01219">
        <ele>701</ele>
        <time>2009-11-21T09:53:44Z</time>
      </trkpt>
      <trkpt lat="43.74001" lon="7.01243">
        <ele>702</ele>
        <time>2009-11-21T09:53:54Z</time>
      </trkpt>
      <trkpt lat="43.73992" lon="7.01261">
        <ele>708</ele>
        <time>2009-11-21T09:54:05Z</time>
      </trkpt>
      <trkpt lat="43.73985" lon="7.01272">
        <ele>712</ele>
        <time>2009-11-21T09:54:16Z</time>
      </trkpt>
      <trkpt lat="43.73982" lon="7.01283">
        <ele>713</ele>
        <time>2009-11-21T09:54:27Z</time>
      </trkpt>
      <trkpt lat="43.73982" lon="7.01286">
        <ele>713</ele>
        <time>2009-11-21T09:54:37Z</time>
      </trkpt>
      <trkpt lat="43.73984" lon="7.01286">
        <ele>713</ele>
        <time>2009-11-21T09:54:47Z</time>
      </trkpt>
      <trkpt lat="43.73983" lon="7.01291">
        <ele>714</ele>
        <time>2009-11-21T09:55:00Z</time>
      </trkpt>
      <trkpt lat="43.73981" lon="7.01294">
        <ele>714</ele>
        <time>2009-11-21T09:55:16Z</time>
      </trkpt>
      <trkpt lat="43.73974" lon="7.01298">
        <ele>717</ele>
        <time>2009-11-21T09:55:27Z</time>
      </trkpt>
      <trkpt lat="43.7397" lon="7.013">
        <ele>720</ele>
        <time>2009-11-21T09:55:43Z</time>
      </trkpt>
      <trkpt lat="43.73971" lon="7.01303">
        <ele>720</ele>
        <time>2009-11-21T09:55:54Z</time>
      </trkpt>
      <trkpt lat="43.73976" lon="7.01296">
        <ele>720</ele>
        <time>2009-11-21T09:56:04Z</time>
      </trkpt>
      <trkpt lat="43.73971" lon="7.01287">
        <ele>729</ele>
        <time>2009-11-21T09:56:17Z</time>
      </trkpt>
      <trkpt lat="43.73996" lon="7.01272">
        <ele>729</ele>
        <time>2009-11-21T09:56:27Z</time>
      </trkpt>
      <trkpt lat="43.74031" lon="7.01252">
        <ele>724</ele>
        <time>2009-11-21T09:56:37Z</time>
      </trkpt>
      <trkpt lat="43.74079" lon="7.01277">
        <ele>719</ele>
        <time>2009-11-21T09:56:47Z</time>
      </trkpt>
      <trkpt lat="43.7412" lon="7.01304">
        <ele>717</ele>
        <time>2009-11-21T09:56:57Z</time>
      </trkpt>
      <trkpt lat="43.7417" lon="7.01281">
        <ele>710</ele>
        <time>2009-11-21T09:57:07Z</time>
      </trkpt>
      <trkpt lat="43.74164" lon="7.01271">
        <ele>709</ele>
        <time>2009-11-21T09:57:18Z</time>
      </trkpt>
      <trkpt lat="43.7416" lon="7.01274">
        <ele>712</ele>
        <time>2009-11-21T09:57:29Z</time>
      </trkpt>
      <trkpt lat="43.74161" lon="7.01275">
        <ele>713</ele>
        <time>2009-11-21T09:57:41Z</time>
      </trkpt>
      <trkpt lat="43.74167" lon="7.01276">
        <ele>713</ele>
        <time>2009-11-21T09:58:03Z</time>
      </trkpt>
      <trkpt lat="43.7417" lon="7.01275">
        <ele>713</ele>
        <time>2009-11-21T09:58:15Z</time>
      </trkpt>
      <trkpt lat="43.74162" lon="7.01269">
        <ele>712</ele>
        <time>2009-11-21T09:58:25Z</time>
      </trkpt>
      <trkpt lat="43.74112" lon="7.01218">
        <ele>710</ele>
        <time>2009-11-21T09:58:35Z</time>
      </trkpt>
      <trkpt lat="43.74112" lon="7.01177">
        <ele>700</ele>
        <time>2009-11-21T09:58:45Z</time>
      </trkpt>
      <trkpt lat="43.7416" lon="7.01176">
        <ele>685</ele>
        <time>2009-11-21T09:58:55Z</time>
      </trkpt>
      <trkpt lat="43.74237" lon="7.01134">
        <ele>669</ele>
        <time>2009-11-21T09:59:05Z</time>
      </trkpt>
      <trkpt lat="43.74288" lon="7.01075">
        <ele>657</ele>
        <time>2009-11-21T09:59:15Z</time>
      </trkpt>
      <trkpt lat="43.7433" lon="7.01009">
        <ele>651</ele>
        <time>2009-11-21T09:59:25Z</time>
      </trkpt>
      <trkpt lat="43.74369" lon="7.00958">
        <ele>641</ele>
        <time>2009-11-21T09:59:35Z</time>
      </trkpt>
      <trkpt lat="43.74375" lon="7.00946">
        <ele>636</ele>
        <time>2009-11-21T09:59:45Z</time>
      </trkpt>
      <trkpt lat="43.74374" lon="7.00946">
        <ele>636</ele>
        <time>2009-11-21T09:59:57Z</time>
      </trkpt>
      <trkpt lat="43.74376" lon="7.00944">
        <ele>636</ele>
        <time>2009-11-21T10:00:08Z</time>
      </trkpt>
      <trkpt lat="43.74382" lon="7.00953">
        <ele>633</ele>
        <time>2009-11-21T10:00:18Z</time>
      </trkpt>
      <trkpt lat="43.74386" lon="7.00957">
        <ele>632</ele>
        <time>2009-11-21T10:00:28Z</time>
      </trkpt>
      <trkpt lat="43.7438" lon="7.00956">
        <ele>632</ele>
        <time>2009-11-21T10:00:40Z</time>
      </trkpt>
      <trkpt lat="43.74386" lon="7.00959">
        <ele>632</ele>
        <time>2009-11-21T10:00:51Z</time>
      </trkpt>
      <trkpt lat="43.7439" lon="7.00962">
        <ele>632</ele>
        <time>2009-11-21T10:01:02Z</time>
      </trkpt>
      <trkpt lat="43.74387" lon="7.0096">
        <ele>634</ele>
        <time>2009-11-21T10:01:13Z</time>
      </trkpt>
      <trkpt lat="43.74392" lon="7.00958">
        <ele>639</ele>
        <time>2009-11-21T10:01:25Z</time>
      </trkpt>
      <trkpt lat="43.74391" lon="7.00958">
        <ele>634</ele>
        <time>2009-11-21T10:01:42Z</time>
      </trkpt>
      <trkpt lat="43.74389" lon="7.00955">
        <ele>634</ele>
        <time>2009-11-21T10:01:58Z</time>
      </trkpt>
      <trkpt lat="43.74386" lon="7.00954">
        <ele>634</ele>
        <time>2009-11-21T10:02:08Z</time>
      </trkpt>
      <trkpt lat="43.74383" lon="7.0095">
        <ele>636</ele>
        <time>2009-11-21T10:02:21Z</time>
      </trkpt>
      <trkpt lat="43.74382" lon="7.00948">
        <ele>650</ele>
        <time>2009-11-21T10:02:29Z</time>
      </trkpt>
      <trkpt lat="43.74385" lon="7.00949">
        <ele>638</ele>
        <time>2009-11-21T10:02:42Z</time>
      </trkpt>
      <trkpt lat="43.74387" lon="7.00951">
        <ele>630</ele>
        <time>2009-11-21T10:02:52Z</time>
      </trkpt>
      <trkpt lat="43.74382" lon="7.00957">
        <ele>628</ele>
        <time>2009-11-21T10:03:02Z</time>
      </trkpt>
      <trkpt lat="43.74381" lon="7.00964">
        <ele>628</ele>
        <time>2009-11-21T10:03:12Z</time>
      </trkpt>
      <trkpt lat="43.74389" lon="7.00967">
        <ele>624</ele>
        <time>2009-11-21T10:03:22Z</time>
      </trkpt>
      <trkpt lat="43.74395" lon="7.00967">
        <ele>614</ele>
        <time>2009-11-21T10:03:34Z</time>
      </trkpt>
      <trkpt lat="43.74389" lon="7.00962">
        <ele>615</ele>
        <time>2009-11-21T10:03:44Z</time>
      </trkpt>
      <trkpt lat="43.74382" lon="7.0096">
        <ele>624</ele>
        <time>2009-11-21T10:03:56Z</time>
      </trkpt>
      <trkpt lat="43.7438" lon="7.00953">
        <ele>632</ele>
        <time>2009-11-21T10:04:06Z</time>
      </trkpt>
      <trkpt lat="43.74374" lon="7.00936">
        <ele>641</ele>
        <time>2009-11-21T10:04:16Z</time>
      </trkpt>
      <trkpt lat="43.74369" lon="7.00927">
        <ele>656</ele>
        <time>2009-11-21T10:04:27Z</time>
      </trkpt>
      <trkpt lat="43.74379" lon="7.0094">
        <ele>654</ele>
        <time>2009-11-21T10:04:37Z</time>
      </trkpt>
      <trkpt lat="43.74373" lon="7.00935">
        <ele>653</ele>
        <time>2009-11-21T10:04:47Z</time>
      </trkpt>
      <trkpt lat="43.74372" lon="7.0095">
        <ele>645</ele>
        <time>2009-11-21T10:04:57Z</time>
      </trkpt>
      <trkpt lat="43.74365" lon="7.00966">
        <ele>639</ele>
        <time>2009-11-21T10:05:07Z</time>
      </trkpt>
      <trkpt lat="43.74359" lon="7.00983">
        <ele>638</ele>
        <time>2009-11-21T10:05:17Z</time>
      </trkpt>
      <trkpt lat="43.7435" lon="7.00998">
        <ele>638</ele>
        <time>2009-11-21T10:05:27Z</time>
      </trkpt>
      <trkpt lat="43.74342" lon="7.01009">
        <ele>638</ele>
        <time>2009-11-21T10:05:38Z</time>
      </trkpt>
      <trkpt lat="43.74332" lon="7.01021">
        <ele>638</ele>
        <time>2009-11-21T10:05:48Z</time>
      </trkpt>
      <trkpt lat="43.74326" lon="7.01029">
        <ele>640</ele>
        <time>2009-11-21T10:05:58Z</time>
      </trkpt>
      <trkpt lat="43.74315" lon="7.01035">
        <ele>648</ele>
        <time>2009-11-21T10:06:09Z</time>
      </trkpt>
      <trkpt lat="43.74305" lon="7.01041">
        <ele>655</ele>
        <time>2009-11-21T10:06:20Z</time>
      </trkpt>
      <trkpt lat="43.74304" lon="7.01049">
        <ele>656</ele>
        <time>2009-11-21T10:06:30Z</time>
      </trkpt>
      <trkpt lat="43.74292" lon="7.01054">
        <ele>660</ele>
        <time>2009-11-21T10:06:41Z</time>
      </trkpt>
      <trkpt lat="43.74285" lon="7.01061">
        <ele>661</ele>
        <time>2009-11-21T10:06:51Z</time>
      </trkpt>
      <trkpt lat="43.74277" lon="7.0107">
        <ele>663</ele>
        <time>2009-11-21T10:07:01Z</time>
      </trkpt>
      <trkpt lat="43.74271" lon="7.01082">
        <ele>663</ele>
        <time>2009-11-21T10:07:11Z</time>
      </trkpt>
      <trkpt lat="43.74269" lon="7.01091">
        <ele>664</ele>
        <time>2009-11-21T10:07:21Z</time>
      </trkpt>
      <trkpt lat="43.74262" lon="7.01104">
        <ele>664</ele>
        <time>2009-11-21T10:07:31Z</time>
      </trkpt>
      <trkpt lat="43.74253" lon="7.01111">
        <ele>664</ele>
        <time>2009-11-21T10:07:41Z</time>
      </trkpt>
      <trkpt lat="43.74241" lon="7.01127">
        <ele>664</ele>
        <time>2009-11-21T10:07:51Z</time>
      </trkpt>
      <trkpt lat="43.74232" lon="7.01138">
        <ele>664</ele>
        <time>2009-11-21T10:08:01Z</time>
      </trkpt>
      <trkpt lat="43.7422" lon="7.01144">
        <ele>665</ele>
        <time>2009-11-21T10:08:11Z</time>
      </trkpt>
      <trkpt lat="43.74205" lon="7.01149">
        <ele>668</ele>
        <time>2009-11-21T10:08:22Z</time>
      </trkpt>
      <trkpt lat="43.74193" lon="7.01157">
        <ele>670</ele>
        <time>2009-11-21T10:08:32Z</time>
      </trkpt>
      <trkpt lat="43.74181" lon="7.01164">
        <ele>674</ele>
        <time>2009-11-21T10:08:42Z</time>
      </trkpt>
      <trkpt lat="43.74171" lon="7.01172">
        <ele>674</ele>
        <time>2009-11-21T10:08:52Z</time>
      </trkpt>
      <trkpt lat="43.74162" lon="7.01184">
        <ele>678</ele>
        <time>2009-11-21T10:09:03Z</time>
      </trkpt>
      <trkpt lat="43.74155" lon="7.01195">
        <ele>680</ele>
        <time>2009-11-21T10:09:13Z</time>
      </trkpt>
      <trkpt lat="43.74145" lon="7.01203">
        <ele>682</ele>
        <time>2009-11-21T10:09:23Z</time>
      </trkpt>
      <trkpt lat="43.74133" lon="7.012">
        <ele>682</ele>
        <time>2009-11-21T10:09:33Z</time>
      </trkpt>
      <trkpt lat="43.74125" lon="7.01187">
        <ele>686</ele>
        <time>2009-11-21T10:09:43Z</time>
      </trkpt>
      <trkpt lat="43.7412" lon="7.01173">
        <ele>691</ele>
        <time>2009-11-21T10:09:54Z</time>
      </trkpt>
      <trkpt lat="43.74115" lon="7.01172">
        <ele>693</ele>
        <time>2009-11-21T10:10:05Z</time>
      </trkpt>
      <trkpt lat="43.74116" lon="7.0118">
        <ele>693</ele>
        <time>2009-11-21T10:10:15Z</time>
      </trkpt>
      <trkpt lat="43.74115" lon="7.01197">
        <ele>693</ele>
        <time>2009-11-21T10:10:25Z</time>
      </trkpt>
      <trkpt lat="43.74117" lon="7.01213">
        <ele>693</ele>
        <time>2009-11-21T10:10:35Z</time>
      </trkpt>
      <trkpt lat="43.74127" lon="7.0123">
        <ele>693</ele>
        <time>2009-11-21T10:10:45Z</time>
      </trkpt>
      <trkpt lat="43.74137" lon="7.0124">
        <ele>692</ele>
        <time>2009-11-21T10:10:56Z</time>
      </trkpt>
      <trkpt lat="43.74149" lon="7.01251">
        <ele>692</ele>
        <time>2009-11-21T10:11:06Z</time>
      </trkpt>
      <trkpt lat="43.74161" lon="7.01264">
        <ele>692</ele>
        <time>2009-11-21T10:11:16Z</time>
      </trkpt>
      <trkpt lat="43.74173" lon="7.01276">
        <ele>692</ele>
        <time>2009-11-21T10:11:27Z</time>
      </trkpt>
      <trkpt lat="43.74168" lon="7.01289">
        <ele>695</ele>
        <time>2009-11-21T10:11:37Z</time>
      </trkpt>
      <trkpt lat="43.74159" lon="7.01295">
        <ele>698</ele>
        <time>2009-11-21T10:11:48Z</time>
      </trkpt>
      <trkpt lat="43.74148" lon="7.013">
        <ele>700</ele>
        <time>2009-11-21T10:11:58Z</time>
      </trkpt>
      <trkpt lat="43.74133" lon="7.01307">
        <ele>706</ele>
        <time>2009-11-21T10:12:09Z</time>
      </trkpt>
      <trkpt lat="43.74121" lon="7.01303">
        <ele>707</ele>
        <time>2009-11-21T10:12:19Z</time>
      </trkpt>
      <trkpt lat="43.74101" lon="7.01289">
        <ele>713</ele>
        <time>2009-11-21T10:12:29Z</time>
      </trkpt>
      <trkpt lat="43.74076" lon="7.01272">
        <ele>718</ele>
        <time>2009-11-21T10:12:39Z</time>
      </trkpt>
      <trkpt lat="43.74052" lon="7.01259">
        <ele>720</ele>
        <time>2009-11-21T10:12:49Z</time>
      </trkpt>
      <trkpt lat="43.74032" lon="7.0125">
        <ele>720</ele>
        <time>2009-11-21T10:12:59Z</time>
      </trkpt>
      <trkpt lat="43.74016" lon="7.01262">
        <ele>720</ele>
        <time>2009-11-21T10:13:09Z</time>
      </trkpt>
      <trkpt lat="43.74002" lon="7.01279">
        <ele>720</ele>
        <time>2009-11-21T10:13:19Z</time>
      </trkpt>
      <trkpt lat="43.73987" lon="7.0129">
        <ele>720</ele>
        <time>2009-11-21T10:13:29Z</time>
      </trkpt>
      <trkpt lat="43.73978" lon="7.01291">
        <ele>720</ele>
        <time>2009-11-21T10:13:43Z</time>
      </trkpt>
      <trkpt lat="43.73983" lon="7.01295">
        <ele>719</ele>
        <time>2009-11-21T10:13:55Z</time>
      </trkpt>
      <trkpt lat="43.73981" lon="7.01296">
        <ele>719</ele>
        <time>2009-11-21T10:14:05Z</time>
      </trkpt>
      <trkpt lat="43.73969" lon="7.01294">
        <ele>719</ele>
        <time>2009-11-21T10:14:16Z</time>
      </trkpt>
      <trkpt lat="43.73968" lon="7.01298">
        <ele>719</ele>
        <time>2009-11-21T10:14:28Z</time>
      </trkpt>
      <trkpt lat="43.73973" lon="7.01301">
        <ele>722</ele>
        <time>2009-11-21T10:14:40Z</time>
      </trkpt>
      <trkpt lat="43.73984" lon="7.01304">
        <ele>721</ele>
        <time>2009-11-21T10:14:50Z</time>
      </trkpt>
      <trkpt lat="43.73978" lon="7.01297">
        <ele>720</ele>
        <time>2009-11-21T10:15:03Z</time>
      </trkpt>
      <trkpt lat="43.73974" lon="7.01295">
        <ele>719</ele>
        <time>2009-11-21T10:15:15Z</time>
      </trkpt>
      <trkpt lat="43.73965" lon="7.01294">
        <ele>719</ele>
        <time>2009-11-21T10:15:25Z</time>
      </trkpt>
      <trkpt lat="43.73949" lon="7.01299">
        <ele>724</ele>
        <time>2009-11-21T10:15:35Z</time>
      </trkpt>
      <trkpt lat="43.73936" lon="7.01302">
        <ele>724</ele>
        <time>2009-11-21T10:15:45Z</time>
      </trkpt>
      <trkpt lat="43.73924" lon="7.01305">
        <ele>724</ele>
        <time>2009-11-21T10:15:55Z</time>
      </trkpt>
      <trkpt lat="43.7391" lon="7.01308">
        <ele>725</ele>
        <time>2009-11-21T10:16:05Z</time>
      </trkpt>
      <trkpt lat="43.73898" lon="7.01312">
        <ele>727</ele>
        <time>2009-11-21T10:16:15Z</time>
      </trkpt>
      <trkpt lat="43.73884" lon="7.0131">
        <ele>728</ele>
        <time>2009-11-21T10:16:26Z</time>
      </trkpt>
      <trkpt lat="43.73883" lon="7.0131">
        <ele>738</ele>
        <time>2009-11-21T10:16:40Z</time>
      </trkpt>
      <trkpt lat="43.73882" lon="7.01316">
        <ele>738</ele>
        <time>2009-11-21T10:16:50Z</time>
      </trkpt>
      <trkpt lat="43.7388" lon="7.01319">
        <ele>735</ele>
        <time>2009-11-21T10:17:00Z</time>
      </trkpt>
      <trkpt lat="43.73864" lon="7.01312">
        <ele>735</ele>
        <time>2009-11-21T10:17:10Z</time>
      </trkpt>
      <trkpt lat="43.73848" lon="7.01304">
        <ele>735</ele>
        <time>2009-11-21T10:17:20Z</time>
      </trkpt>
      <trkpt lat="43.73828" lon="7.01308">
        <ele>735</ele>
        <time>2009-11-21T10:17:30Z</time>
      </trkpt>
      <trkpt lat="43.73812" lon="7.0133">
        <ele>738</ele>
        <time>2009-11-21T10:17:40Z</time>
      </trkpt>
      <trkpt lat="43.73802" lon="7.01356">
        <ele>740</ele>
        <time>2009-11-21T10:17:50Z</time>
      </trkpt>
      <trkpt lat="43.73801" lon="7.01364">
        <ele>740</ele>
        <time>2009-11-21T10:18:00Z</time>
      </trkpt>
      <trkpt lat="43.738" lon="7.01369">
        <ele>740</ele>
        <time>2009-11-21T10:18:13Z</time>
      </trkpt>
      <trkpt lat="43.73798" lon="7.01373">
        <ele>740</ele>
        <time>2009-11-21T10:18:26Z</time>
      </trkpt>
      <trkpt lat="43.73796" lon="7.01376">
        <ele>743</ele>
        <time>2009-11-21T10:18:46Z</time>
      </trkpt>
      <trkpt lat="43.73789" lon="7.01378">
        <ele>741</ele>
        <time>2009-11-21T10:18:57Z</time>
      </trkpt>
      <trkpt lat="43.73781" lon="7.01378">
        <ele>741</ele>
        <time>2009-11-21T10:19:07Z</time>
      </trkpt>
      <trkpt lat="43.73769" lon="7.01374">
        <ele>749</ele>
        <time>2009-11-21T10:19:18Z</time>
      </trkpt>
      <trkpt lat="43.73764" lon="7.01374">
        <ele>756</ele>
        <time>2009-11-21T10:19:31Z</time>
      </trkpt>
      <trkpt lat="43.73755" lon="7.01377">
        <ele>756</ele>
        <time>2009-11-21T10:19:42Z</time>
      </trkpt>
      <trkpt lat="43.73745" lon="7.01376">
        <ele>757</ele>
        <time>2009-11-21T10:19:53Z</time>
      </trkpt>
      <trkpt lat="43.73747" lon="7.01385">
        <ele>758</ele>
        <time>2009-11-21T10:20:05Z</time>
      </trkpt>
      <trkpt lat="43.73746" lon="7.01386">
        <ele>758</ele>
        <time>2009-11-21T10:20:19Z</time>
      </trkpt>
      <trkpt lat="43.73737" lon="7.01389">
        <ele>758</ele>
        <time>2009-11-21T10:20:29Z</time>
      </trkpt>
      <trkpt lat="43.73728" lon="7.01388">
        <ele>761</ele>
        <time>2009-11-21T10:20:42Z</time>
      </trkpt>
      <trkpt lat="43.73719" lon="7.01389">
        <ele>762</ele>
        <time>2009-11-21T10:20:53Z</time>
      </trkpt>
      <trkpt lat="43.73708" lon="7.01393">
        <ele>763</ele>
        <time>2009-11-21T10:21:04Z</time>
      </trkpt>
      <trkpt lat="43.737" lon="7.014">
        <ele>764</ele>
        <time>2009-11-21T10:21:15Z</time>
      </trkpt>
      <trkpt lat="43.73697" lon="7.01398">
        <ele>767</ele>
        <time>2009-11-21T10:21:32Z</time>
      </trkpt>
      <trkpt lat="43.73695" lon="7.01404">
        <ele>766</ele>
        <time>2009-11-21T10:21:43Z</time>
      </trkpt>
      <trkpt lat="43.7369" lon="7.0141">
        <ele>766</ele>
        <time>2009-11-21T10:21:55Z</time>
      </trkpt>
      <trkpt lat="43.73682" lon="7.01412">
        <ele>776</ele>
        <time>2009-11-21T10:22:06Z</time>
      </trkpt>
      <trkpt lat="43.73679" lon="7.01406">
        <ele>792</ele>
        <time>2009-11-21T10:22:17Z</time>
      </trkpt>
      <trkpt lat="43.7368" lon="7.01401">
        <ele>800</ele>
        <time>2009-11-21T10:22:29Z</time>
      </trkpt>
      <trkpt lat="43.73684" lon="7.01402">
        <ele>793</ele>
        <time>2009-11-21T10:22:42Z</time>
      </trkpt>
      <trkpt lat="43.73682" lon="7.01395">
        <ele>790</ele>
        <time>2009-11-21T10:22:52Z</time>
      </trkpt>
      <trkpt lat="43.73686" lon="7.01393">
        <ele>783</ele>
        <time>2009-11-21T10:23:05Z</time>
      </trkpt>
      <trkpt lat="43.73692" lon="7.01395">
        <ele>779</ele>
        <time>2009-11-21T10:23:16Z</time>
      </trkpt>
      <trkpt lat="43.73695" lon="7.01395">
        <ele>774</ele>
        <time>2009-11-21T10:23:35Z</time>
      </trkpt>
      <trkpt lat="43.73694" lon="7.01394">
        <ele>774</ele>
        <time>2009-11-21T10:23:46Z</time>
      </trkpt>
      <trkpt lat="43.73695" lon="7.01395">
        <ele>774</ele>
        <time>2009-11-21T10:23:56Z</time>
      </trkpt>
      <trkpt lat="43.73697" lon="7.01386">
        <ele>770</ele>
        <time>2009-11-21T10:24:08Z</time>
      </trkpt>
      <trkpt lat="43.73697" lon="7.01384">
        <ele>770</ele>
        <time>2009-11-21T10:24:18Z</time>
      </trkpt>
      <trkpt lat="43.73695" lon="7.01389">
        <ele>770</ele>
        <time>2009-11-21T10:24:29Z</time>
      </trkpt>
      <trkpt lat="43.73692" lon="7.01391">
        <ele>771</ele>
        <time>2009-11-21T10:24:42Z</time>
      </trkpt>
      <trkpt lat="43.73691" lon="7.014">
        <ele>771</ele>
        <time>2009-11-21T10:24:56Z</time>
      </trkpt>
      <trkpt lat="43.73691" lon="7.01406">
        <ele>771</ele>
        <time>2009-11-21T10:25:06Z</time>
      </trkpt>
      <trkpt lat="43.73687" lon="7.01411">
        <ele>771</ele>
        <time>2009-11-21T10:25:16Z</time>
      </trkpt>
      <trkpt lat="43.73684" lon="7.01419">
        <ele>771</ele>
        <time>2009-11-21T10:25:26Z</time>
      </trkpt>
      <trkpt lat="43.73679" lon="7.01415">
        <ele>771</ele>
        <time>2009-11-21T10:25:39Z</time>
      </trkpt>
      <trkpt lat="43.73679" lon="7.0141">
        <ele>768</ele>
        <time>2009-11-21T10:25:50Z</time>
      </trkpt>
      <trkpt lat="43.73668" lon="7.01395">
        <ele>767</ele>
        <time>2009-11-21T10:26:00Z</time>
      </trkpt>
      <trkpt lat="43.73653" lon="7.01376">
        <ele>767</ele>
        <time>2009-11-21T10:26:11Z</time>
      </trkpt>
      <trkpt lat="43.73645" lon="7.01368">
        <ele>771</ele>
        <time>2009-11-21T10:26:21Z</time>
      </trkpt>
      <trkpt lat="43.73634" lon="7.01364">
        <ele>774</ele>
        <time>2009-11-21T10:26:31Z</time>
      </trkpt>
      <trkpt lat="43.73618" lon="7.01363">
        <ele>775</ele>
        <time>2009-11-21T10:26:42Z</time>
      </trkpt>
      <trkpt lat="43.73614" lon="7.01358">
        <ele>775</ele>
        <time>2009-11-21T10:26:53Z</time>
      </trkpt>
      <trkpt lat="43.73615" lon="7.01356">
        <ele>778</ele>
        <time>2009-11-21T10:27:03Z</time>
      </trkpt>
      <trkpt lat="43.7361" lon="7.01345">
        <ele>778</ele>
        <time>2009-11-21T10:27:14Z</time>
      </trkpt>
      <trkpt lat="43.73607" lon="7.01333">
        <ele>780</ele>
        <time>2009-11-21T10:27:24Z</time>
      </trkpt>
      <trkpt lat="43.73602" lon="7.01321">
        <ele>781</ele>
        <time>2009-11-21T10:27:34Z</time>
      </trkpt>
      <trkpt lat="43.736" lon="7.01325">
        <ele>781</ele>
        <time>2009-11-21T10:27:46Z</time>
      </trkpt>
      <trkpt lat="43.73594" lon="7.01328">
        <ele>783</ele>
        <time>2009-11-21T10:27:57Z</time>
      </trkpt>
      <trkpt lat="43.73589" lon="7.01328">
        <ele>796</ele>
        <time>2009-11-21T10:28:12Z</time>
      </trkpt>
      <trkpt lat="43.73583" lon="7.0133">
        <ele>796</ele>
        <time>2009-11-21T10:28:25Z</time>
      </trkpt>
      <trkpt lat="43.73576" lon="7.01331">
        <ele>796</ele>
        <time>2009-11-21T10:28:36Z</time>
      </trkpt>
      <trkpt lat="43.73567" lon="7.01331">
        <ele>796</ele>
        <time>2009-11-21T10:28:46Z</time>
      </trkpt>
      <trkpt lat="43.73558" lon="7.01334">
        <ele>800</ele>
        <time>2009-11-21T10:28:59Z</time>
      </trkpt>
      <trkpt lat="43.73556" lon="7.01334">
        <ele>799</ele>
        <time>2009-11-21T10:29:10Z</time>
      </trkpt>
      <trkpt lat="43.73554" lon="7.01335">
        <ele>801</ele>
        <time>2009-11-21T10:29:23Z</time>
      </trkpt>
      <trkpt lat="43.73557" lon="7.01334">
        <ele>800</ele>
        <time>2009-11-21T10:29:33Z</time>
      </trkpt>
      <trkpt lat="43.73557" lon="7.01325">
        <ele>801</ele>
        <time>2009-11-21T10:29:43Z</time>
      </trkpt>
      <trkpt lat="43.73561" lon="7.01327">
        <ele>806</ele>
        <time>2009-11-21T10:29:58Z</time>
      </trkpt>
      <trkpt lat="43.73552" lon="7.01315">
        <ele>803</ele>
        <time>2009-11-21T10:30:09Z</time>
      </trkpt>
      <trkpt lat="43.73551" lon="7.01308">
        <ele>802</ele>
        <time>2009-11-21T10:30:21Z</time>
      </trkpt>
      <trkpt lat="43.73543" lon="7.01297">
        <ele>800</ele>
        <time>2009-11-21T10:30:31Z</time>
      </trkpt>
      <trkpt lat="43.73533" lon="7.01291">
        <ele>800</ele>
        <time>2009-11-21T10:30:41Z</time>
      </trkpt>
      <trkpt lat="43.73524" lon="7.01285">
        <ele>800</ele>
        <time>2009-11-21T10:30:51Z</time>
      </trkpt>
      <trkpt lat="43.73517" lon="7.0128">
        <ele>801</ele>
        <time>2009-11-21T10:31:01Z</time>
      </trkpt>
      <trkpt lat="43.73504" lon="7.01269">
        <ele>803</ele>
        <time>2009-11-21T10:31:11Z</time>
      </trkpt>
      <trkpt lat="43.73493" lon="7.01266">
        <ele>805</ele>
        <time>2009-11-21T10:31:21Z</time>
      </trkpt>
      <trkpt lat="43.73483" lon="7.01263">
        <ele>809</ele>
        <time>2009-11-21T10:31:32Z</time>
      </trkpt>
      <trkpt lat="43.7348" lon="7.01262">
        <ele>818</ele>
        <time>2009-11-21T10:31:42Z</time>
      </trkpt>
      <trkpt lat="43.7348" lon="7.01261">
        <ele>827</ele>
        <time>2009-11-21T10:31:53Z</time>
      </trkpt>
      <trkpt lat="43.73479" lon="7.01256">
        <ele>830</ele>
        <time>2009-11-21T10:32:06Z</time>
      </trkpt>
      <trkpt lat="43.73478" lon="7.01261">
        <ele>837</ele>
        <time>2009-11-21T10:32:16Z</time>
      </trkpt>
      <trkpt lat="43.73482" lon="7.01267">
        <ele>848</ele>
        <time>2009-11-21T10:32:27Z</time>
      </trkpt>
      <trkpt lat="43.73482" lon="7.01266">
        <ele>853</ele>
        <time>2009-11-21T10:32:44Z</time>
      </trkpt>
      <trkpt lat="43.73485" lon="7.01264">
        <ele>834</ele>
        <time>2009-11-21T10:32:55Z</time>
      </trkpt>
      <trkpt lat="43.73483" lon="7.01265">
        <ele>824</ele>
        <time>2009-11-21T10:33:20Z</time>
      </trkpt>
      <trkpt lat="43.73482" lon="7.01266">
        <ele>824</ele>
        <time>2009-11-21T10:33:32Z</time>
      </trkpt>
      <trkpt lat="43.73478" lon="7.01272">
        <ele>825</ele>
        <time>2009-11-21T10:33:46Z</time>
      </trkpt>
      <trkpt lat="43.73474" lon="7.0127">
        <ele>825</ele>
        <time>2009-11-21T10:34:00Z</time>
      </trkpt>
      <trkpt lat="43.73467" lon="7.01267">
        <ele>824</ele>
        <time>2009-11-21T10:34:10Z</time>
      </trkpt>
      <trkpt lat="43.73462" lon="7.01266">
        <ele>826</ele>
        <time>2009-11-21T10:34:11Z</time>
      </trkpt>
      <trkpt lat="43.73463" lon="7.01267">
        <ele>838</ele>
        <time>2009-11-21T10:34:26Z</time>
      </trkpt>
      <trkpt lat="43.73465" lon="7.01267">
        <ele>838</ele>
        <time>2009-11-21T10:34:37Z</time>
      </trkpt>
      <trkpt lat="43.73469" lon="7.01267">
        <ele>834</ele>
        <time>2009-11-21T10:34:49Z</time>
      </trkpt>
      <trkpt lat="43.73479" lon="7.01265">
        <ele>825</ele>
        <time>2009-11-21T10:34:59Z</time>
      </trkpt>
      <trkpt lat="43.7348" lon="7.01264">
        <ele>797</ele>
        <time>2009-11-21T10:35:16Z</time>
      </trkpt>
      <trkpt lat="43.73482" lon="7.01264">
        <ele>795</ele>
        <time>2009-11-21T10:35:31Z</time>
      </trkpt>
      <trkpt lat="43.73486" lon="7.01266">
        <ele>795</ele>
        <time>2009-11-21T10:35:43Z</time>
      </trkpt>
      <trkpt lat="43.73488" lon="7.01271">
        <ele>795</ele>
        <time>2009-11-21T10:35:56Z</time>
      </trkpt>
      <trkpt lat="43.73485" lon="7.01269">
        <ele>795</ele>
        <time>2009-11-21T10:36:06Z</time>
      </trkpt>
      <trkpt lat="43.73477" lon="7.01258">
        <ele>795</ele>
        <time>2009-11-21T10:36:17Z</time>
      </trkpt>
      <trkpt lat="43.73476" lon="7.0125">
        <ele>801</ele>
        <time>2009-11-21T10:36:29Z</time>
      </trkpt>
      <trkpt lat="43.73476" lon="7.0125">
        <ele>804</ele>
        <time>2009-11-21T10:36:40Z</time>
      </trkpt>
      <trkpt lat="43.73475" lon="7.01253">
        <ele>805</ele>
        <time>2009-11-21T10:37:01Z</time>
      </trkpt>
      <trkpt lat="43.7347" lon="7.01245">
        <ele>805</ele>
        <time>2009-11-21T10:37:11Z</time>
      </trkpt>
      <trkpt lat="43.73469" lon="7.01254">
        <ele>810</ele>
        <time>2009-11-21T10:37:22Z</time>
      </trkpt>
      <trkpt lat="43.73468" lon="7.01257">
        <ele>811</ele>
        <time>2009-11-21T10:37:32Z</time>
      </trkpt>
      <trkpt lat="43.73464" lon="7.01264">
        <ele>813</ele>
        <time>2009-11-21T10:37:42Z</time>
      </trkpt>
      <trkpt lat="43.73459" lon="7.0127">
        <ele>818</ele>
        <time>2009-11-21T10:37:52Z</time>
      </trkpt>
      <trkpt lat="43.73451" lon="7.0126">
        <ele>818</ele>
        <time>2009-11-21T10:38:02Z</time>
      </trkpt>
      <trkpt lat="43.73444" lon="7.01246">
        <ele>817</ele>
        <time>2009-11-21T10:38:12Z</time>
      </trkpt>
      <trkpt lat="43.7343" lon="7.0123">
        <ele>817</ele>
        <time>2009-11-21T10:38:22Z</time>
      </trkpt>
      <trkpt lat="43.73418" lon="7.01208">
        <ele>817</ele>
        <time>2009-11-21T10:38:32Z</time>
      </trkpt>
      <trkpt lat="43.73409" lon="7.01195">
        <ele>817</ele>
        <time>2009-11-21T10:38:42Z</time>
      </trkpt>
      <trkpt lat="43.73393" lon="7.01179">
        <ele>817</ele>
        <time>2009-11-21T10:38:52Z</time>
      </trkpt>
      <trkpt lat="43.73388" lon="7.01166">
        <ele>817</ele>
        <time>2009-11-21T10:39:03Z</time>
      </trkpt>
      <trkpt lat="43.73387" lon="7.01166">
        <ele>815</ele>
        <time>2009-11-21T10:39:16Z</time>
      </trkpt>
      <trkpt lat="43.73384" lon="7.01164">
        <ele>814</ele>
        <time>2009-11-21T10:39:31Z</time>
      </trkpt>
      <trkpt lat="43.73385" lon="7.0116">
        <ele>813</ele>
        <time>2009-11-21T10:39:42Z</time>
      </trkpt>
      <trkpt lat="43.73381" lon="7.01158">
        <ele>813</ele>
        <time>2009-11-21T10:39:53Z</time>
      </trkpt>
      <trkpt lat="43.73373" lon="7.01162">
        <ele>813</ele>
        <time>2009-11-21T10:40:04Z</time>
      </trkpt>
      <trkpt lat="43.73369" lon="7.01155">
        <ele>811</ele>
        <time>2009-11-21T10:40:15Z</time>
      </trkpt>
      <trkpt lat="43.73364" lon="7.01153">
        <ele>813</ele>
        <time>2009-11-21T10:40:27Z</time>
      </trkpt>
      <trkpt lat="43.73361" lon="7.01143">
        <ele>822</ele>
        <time>2009-11-21T10:40:38Z</time>
      </trkpt>
      <trkpt lat="43.73357" lon="7.01135">
        <ele>824</ele>
        <time>2009-11-21T10:40:48Z</time>
      </trkpt>
      <trkpt lat="43.73353" lon="7.01129">
        <ele>824</ele>
        <time>2009-11-21T10:40:58Z</time>
      </trkpt>
      <trkpt lat="43.73352" lon="7.01117">
        <ele>825</ele>
        <time>2009-11-21T10:41:08Z</time>
      </trkpt>
      <trkpt lat="43.7335" lon="7.01106">
        <ele>825</ele>
        <time>2009-11-21T10:41:19Z</time>
      </trkpt>
      <trkpt lat="43.73347" lon="7.0109">
        <ele>825</ele>
        <time>2009-11-21T10:41:29Z</time>
      </trkpt>
      <trkpt lat="43.73348" lon="7.01073">
        <ele>828</ele>
        <time>2009-11-21T10:41:39Z</time>
      </trkpt>
      <trkpt lat="43.73348" lon="7.01057">
        <ele>828</ele>
        <time>2009-11-21T10:41:50Z</time>
      </trkpt>
      <trkpt lat="43.73348" lon="7.0105">
        <ele>828</ele>
        <time>2009-11-21T10:42:01Z</time>
      </trkpt>
      <trkpt lat="43.73345" lon="7.0104">
        <ele>828</ele>
        <time>2009-11-21T10:42:11Z</time>
      </trkpt>
      <trkpt lat="43.73342" lon="7.01026">
        <ele>835</ele>
        <time>2009-11-21T10:42:22Z</time>
      </trkpt>
      <trkpt lat="43.73334" lon="7.01018">
        <ele>838</ele>
        <time>2009-11-21T10:42:32Z</time>
      </trkpt>
      <trkpt lat="43.73328" lon="7.01011">
        <ele>839</ele>
        <time>2009-11-21T10:42:42Z</time>
      </trkpt>
      <trkpt lat="43.73318" lon="7.00998">
        <ele>840</ele>
        <time>2009-11-21T10:42:52Z</time>
      </trkpt>
      <trkpt lat="43.73307" lon="7.00991">
        <ele>847</ele>
        <time>2009-11-21T10:43:03Z</time>
      </trkpt>
      <trkpt lat="43.73296" lon="7.00986">
        <ele>847</ele>
        <time>2009-11-21T10:43:13Z</time>
      </trkpt>
      <trkpt lat="43.73284" lon="7.00982">
        <ele>847</ele>
        <time>2009-11-21T10:43:24Z</time>
      </trkpt>
      <trkpt lat="43.73276" lon="7.00979">
        <ele>846</ele>
        <time>2009-11-21T10:43:35Z</time>
      </trkpt>
      <trkpt lat="43.73267" lon="7.00972">
        <ele>847</ele>
        <time>2009-11-21T10:43:47Z</time>
      </trkpt>
      <trkpt lat="43.73262" lon="7.00971">
        <ele>857</ele>
        <time>2009-11-21T10:44:00Z</time>
      </trkpt>
      <trkpt lat="43.7326" lon="7.00975">
        <ele>865</ele>
        <time>2009-11-21T10:44:19Z</time>
      </trkpt>
      <trkpt lat="43.73261" lon="7.00974">
        <ele>867</ele>
        <time>2009-11-21T10:44:30Z</time>
      </trkpt>
      <trkpt lat="43.73266" lon="7.00975">
        <ele>856</ele>
        <time>2009-11-21T10:44:41Z</time>
      </trkpt>
      <trkpt lat="43.7327" lon="7.00974">
        <ele>846</ele>
        <time>2009-11-21T10:44:54Z</time>
      </trkpt>
      <trkpt lat="43.73268" lon="7.00972">
        <ele>845</ele>
        <time>2009-11-21T10:45:08Z</time>
      </trkpt>
      <trkpt lat="43.73264" lon="7.00968">
        <ele>840</ele>
        <time>2009-11-21T10:45:23Z</time>
      </trkpt>
      <trkpt lat="43.73262" lon="7.00965">
        <ele>839</ele>
        <time>2009-11-21T10:45:39Z</time>
      </trkpt>
      <trkpt lat="43.73261" lon="7.00964">
        <ele>838</ele>
        <time>2009-11-21T10:45:53Z</time>
      </trkpt>
      <trkpt lat="43.7326" lon="7.00963">
        <ele>837</ele>
        <time>2009-11-21T10:46:07Z</time>
      </trkpt>
      <trkpt lat="43.73259" lon="7.00962">
        <ele>836</ele>
        <time>2009-11-21T10:46:20Z</time>
      </trkpt>
      <trkpt lat="43.73256" lon="7.0096">
        <ele>849</ele>
        <time>2009-11-21T10:46:35Z</time>
      </trkpt>
      <trkpt lat="43.73262" lon="7.0096">
        <ele>838</ele>
        <time>2009-11-21T10:46:47Z</time>
      </trkpt>
      <trkpt lat="43.73262" lon="7.00964">
        <ele>833</ele>
        <time>2009-11-21T10:47:00Z</time>
      </trkpt>
      <trkpt lat="43.73262" lon="7.00967">
        <ele>834</ele>
        <time>2009-11-21T10:47:10Z</time>
      </trkpt>
      <trkpt lat="43.73265" lon="7.00971">
        <ele>833</ele>
        <time>2009-11-21T10:47:23Z</time>
      </trkpt>
      <trkpt lat="43.73268" lon="7.00972">
        <ele>829</ele>
        <time>2009-11-21T10:47:34Z</time>
      </trkpt>
      <trkpt lat="43.73265" lon="7.00974">
        <ele>827</ele>
        <time>2009-11-21T10:47:45Z</time>
      </trkpt>
      <trkpt lat="43.73262" lon="7.00978">
        <ele>836</ele>
        <time>2009-11-21T10:47:57Z</time>
      </trkpt>
      <trkpt lat="43.73262" lon="7.00978">
        <ele>840</ele>
        <time>2009-11-21T10:48:12Z</time>
      </trkpt>
      <trkpt lat="43.73263" lon="7.0097">
        <ele>853</ele>
        <time>2009-11-21T10:48:25Z</time>
      </trkpt>
      <trkpt lat="43.73262" lon="7.00968">
        <ele>862</ele>
        <time>2009-11-21T10:48:43Z</time>
      </trkpt>
      <trkpt lat="43.73259" lon="7.00966">
        <ele>864</ele>
        <time>2009-11-21T10:48:53Z</time>
      </trkpt>
      <trkpt lat="43.73258" lon="7.00966">
        <ele>862</ele>
        <time>2009-11-21T10:49:05Z</time>
      </trkpt>
      <trkpt lat="43.73258" lon="7.00969">
        <ele>862</ele>
        <time>2009-11-21T10:49:15Z</time>
      </trkpt>
      <trkpt lat="43.73247" lon="7.00965">
        <ele>862</ele>
        <time>2009-11-21T10:49:25Z</time>
      </trkpt>
      <trkpt lat="43.73239" lon="7.00959">
        <ele>858</ele>
        <time>2009-11-21T10:49:37Z</time>
      </trkpt>
      <trkpt lat="43.73226" lon="7.00958">
        <ele>853</ele>
        <time>2009-11-21T10:49:48Z</time>
      </trkpt>
      <trkpt lat="43.73214" lon="7.00959">
        <ele>852</ele>
        <time>2009-11-21T10:49:59Z</time>
      </trkpt>
      <trkpt lat="43.73202" lon="7.00958">
        <ele>852</ele>
        <time>2009-11-21T10:50:09Z</time>
      </trkpt>
      <trkpt lat="43.73191" lon="7.00958">
        <ele>852</ele>
        <time>2009-11-21T10:50:19Z</time>
      </trkpt>
      <trkpt lat="43.7318" lon="7.00956">
        <ele>853</ele>
        <time>2009-11-21T10:50:29Z</time>
      </trkpt>
      <trkpt lat="43.73172" lon="7.00956">
        <ele>854</ele>
        <time>2009-11-21T10:50:40Z</time>
      </trkpt>
      <trkpt lat="43.73166" lon="7.00955">
        <ele>854</ele>
        <time>2009-11-21T10:50:53Z</time>
      </trkpt>
      <trkpt lat="43.73155" lon="7.00956">
        <ele>854</ele>
        <time>2009-11-21T10:51:03Z</time>
      </trkpt>
      <trkpt lat="43.73142" lon="7.00954">
        <ele>854</ele>
        <time>2009-11-21T10:51:13Z</time>
      </trkpt>
      <trkpt lat="43.73129" lon="7.00954">
        <ele>856</ele>
        <time>2009-11-21T10:51:23Z</time>
      </trkpt>
      <trkpt lat="43.73118" lon="7.00953">
        <ele>857</ele>
        <time>2009-11-21T10:51:33Z</time>
      </trkpt>
      <trkpt lat="43.73107" lon="7.00952">
        <ele>862</ele>
        <time>2009-11-21T10:51:44Z</time>
      </trkpt>
      <trkpt lat="43.73098" lon="7.00951">
        <ele>862</ele>
        <time>2009-11-21T10:51:56Z</time>
      </trkpt>
      <trkpt lat="43.73097" lon="7.00952">
        <ele>865</ele>
        <time>2009-11-21T10:52:07Z</time>
      </trkpt>
      <trkpt lat="43.73093" lon="7.0095">
        <ele>870</ele>
        <time>2009-11-21T10:52:19Z</time>
      </trkpt>
      <trkpt lat="43.73088" lon="7.00948">
        <ele>870</ele>
        <time>2009-11-21T10:52:29Z</time>
      </trkpt>
      <trkpt lat="43.73075" lon="7.00947">
        <ele>866</ele>
        <time>2009-11-21T10:52:39Z</time>
      </trkpt>
      <trkpt lat="43.73064" lon="7.0095">
        <ele>865</ele>
        <time>2009-11-21T10:52:49Z</time>
      </trkpt>
      <trkpt lat="43.73055" lon="7.00954">
        <ele>865</ele>
        <time>2009-11-21T10:53:00Z</time>
      </trkpt>
      <trkpt lat="43.73053" lon="7.00953">
        <ele>865</ele>
        <time>2009-11-21T10:53:11Z</time>
      </trkpt>
      <trkpt lat="43.73048" lon="7.00953">
        <ele>865</ele>
        <time>2009-11-21T10:53:22Z</time>
      </trkpt>
      <trkpt lat="43.73039" lon="7.00956">
        <ele>865</ele>
        <time>2009-11-21T10:53:33Z</time>
      </trkpt>
      <trkpt lat="43.73033" lon="7.00954">
        <ele>863</ele>
        <time>2009-11-21T10:53:43Z</time>
      </trkpt>
      <trkpt lat="43.73021" lon="7.00953">
        <ele>863</ele>
        <time>2009-11-21T10:53:53Z</time>
      </trkpt>
      <trkpt lat="43.73008" lon="7.00958">
        <ele>863</ele>
        <time>2009-11-21T10:54:04Z</time>
      </trkpt>
      <trkpt lat="43.72993" lon="7.00959">
        <ele>865</ele>
        <time>2009-11-21T10:54:17Z</time>
      </trkpt>
      <trkpt lat="43.7299" lon="7.0096">
        <ele>866</ele>
        <time>2009-11-21T10:54:27Z</time>
      </trkpt>
      <trkpt lat="43.72987" lon="7.00953">
        <ele>867</ele>
        <time>2009-11-21T10:54:38Z</time>
      </trkpt>
      <trkpt lat="43.72973" lon="7.00948">
        <ele>869</ele>
        <time>2009-11-21T10:54:48Z</time>
      </trkpt>
      <trkpt lat="43.7297" lon="7.00946">
        <ele>869</ele>
        <time>2009-11-21T10:54:59Z</time>
      </trkpt>
      <trkpt lat="43.72969" lon="7.00948">
        <ele>869</ele>
        <time>2009-11-21T10:55:11Z</time>
      </trkpt>
      <trkpt lat="43.7297" lon="7.00953">
        <ele>876</ele>
        <time>2009-11-21T10:55:21Z</time>
      </trkpt>
      <trkpt lat="43.7297" lon="7.00952">
        <ele>876</ele>
        <time>2009-11-21T10:55:34Z</time>
      </trkpt>
      <trkpt lat="43.72971" lon="7.00952">
        <ele>876</ele>
        <time>2009-11-21T10:55:44Z</time>
      </trkpt>
      <trkpt lat="43.72969" lon="7.00951">
        <ele>876</ele>
        <time>2009-11-21T10:55:54Z</time>
      </trkpt>
      <trkpt lat="43.72966" lon="7.00952">
        <ele>876</ele>
        <time>2009-11-21T10:56:04Z</time>
      </trkpt>
      <trkpt lat="43.72965" lon="7.00947">
        <ele>875</ele>
        <time>2009-11-21T10:56:16Z</time>
      </trkpt>
      <trkpt lat="43.72962" lon="7.0094">
        <ele>865</ele>
        <time>2009-11-21T10:56:28Z</time>
      </trkpt>
      <trkpt lat="43.72964" lon="7.00939">
        <ele>865</ele>
        <time>2009-11-21T10:56:40Z</time>
      </trkpt>
      <trkpt lat="43.72966" lon="7.00943">
        <ele>874</ele>
        <time>2009-11-21T10:56:50Z</time>
      </trkpt>
      <trkpt lat="43.72966" lon="7.00945">
        <ele>879</ele>
        <time>2009-11-21T10:57:12Z</time>
      </trkpt>
      <trkpt lat="43.72973" lon="7.00955">
        <ele>871</ele>
        <time>2009-11-21T10:57:22Z</time>
      </trkpt>
      <trkpt lat="43.72993" lon="7.0098">
        <ele>864</ele>
        <time>2009-11-21T10:57:33Z</time>
      </trkpt>
      <trkpt lat="43.7299" lon="7.00983">
        <ele>863</ele>
        <time>2009-11-21T10:57:48Z</time>
      </trkpt>
      <trkpt lat="43.72989" lon="7.00987">
        <ele>863</ele>
        <time>2009-11-21T10:58:00Z</time>
      </trkpt>
      <trkpt lat="43.72991" lon="7.00991">
        <ele>876</ele>
        <time>2009-11-21T10:58:19Z</time>
      </trkpt>
      <trkpt lat="43.72993" lon="7.00986">
        <ele>874</ele>
        <time>2009-11-21T10:58:31Z</time>
      </trkpt>
      <trkpt lat="43.72995" lon="7.00983">
        <ele>874</ele>
        <time>2009-11-21T10:58:42Z</time>
      </trkpt>
      <trkpt lat="43.72997" lon="7.00981">
        <ele>872</ele>
        <time>2009-11-21T10:58:58Z</time>
      </trkpt>
      <trkpt lat="43.73001" lon="7.00992">
        <ele>872</ele>
        <time>2009-11-21T10:59:08Z</time>
      </trkpt>
      <trkpt lat="43.7301" lon="7.01042">
        <ele>865</ele>
        <time>2009-11-21T10:59:18Z</time>
      </trkpt>
      <trkpt lat="43.73025" lon="7.01092">
        <ele>859</ele>
        <time>2009-11-21T10:59:28Z</time>
      </trkpt>
      <trkpt lat="43.73013" lon="7.01132">
        <ele>859</ele>
        <time>2009-11-21T10:59:38Z</time>
      </trkpt>
      <trkpt lat="43.73009" lon="7.01177">
        <ele>865</ele>
        <time>2009-11-21T10:59:48Z</time>
      </trkpt>
      <trkpt lat="43.73042" lon="7.01191">
        <ele>865</ele>
        <time>2009-11-21T10:59:58Z</time>
      </trkpt>
      <trkpt lat="43.73065" lon="7.01216">
        <ele>860</ele>
        <time>2009-11-21T11:00:08Z</time>
      </trkpt>
      <trkpt lat="43.73083" lon="7.01267">
        <ele>862</ele>
        <time>2009-11-21T11:00:18Z</time>
      </trkpt>
      <trkpt lat="43.7312" lon="7.01296">
        <ele>864</ele>
        <time>2009-11-21T11:00:28Z</time>
      </trkpt>
      <trkpt lat="43.73158" lon="7.01303">
        <ele>855</ele>
        <time>2009-11-21T11:00:38Z</time>
      </trkpt>
      <trkpt lat="43.73164" lon="7.01314">
        <ele>849</ele>
        <time>2009-11-21T11:00:48Z</time>
      </trkpt>
      <trkpt lat="43.73199" lon="7.0136">
        <ele>848</ele>
        <time>2009-11-21T11:00:58Z</time>
      </trkpt>
      <trkpt lat="43.73263" lon="7.01434">
        <ele>839</ele>
        <time>2009-11-21T11:01:08Z</time>
      </trkpt>
      <trkpt lat="43.73318" lon="7.01492">
        <ele>831</ele>
        <time>2009-11-21T11:01:18Z</time>
      </trkpt>
      <trkpt lat="43.7338" lon="7.01561">
        <ele>819</ele>
        <time>2009-11-21T11:01:28Z</time>
      </trkpt>
      <trkpt lat="43.73438" lon="7.01607">
        <ele>818</ele>
        <time>2009-11-21T11:01:38Z</time>
      </trkpt>
      <trkpt lat="43.73493" lon="7.01651">
        <ele>818</ele>
        <time>2009-11-21T11:01:48Z</time>
      </trkpt>
      <trkpt lat="43.7352" lon="7.01686">
        <ele>824</ele>
        <time>2009-11-21T11:01:58Z</time>
      </trkpt>
      <trkpt lat="43.73532" lon="7.01715">
        <ele>828</ele>
        <time>2009-11-21T11:02:08Z</time>
      </trkpt>
      <trkpt lat="43.73542" lon="7.0177">
        <ele>836</ele>
        <time>2009-11-21T11:02:18Z</time>
      </trkpt>
      <trkpt lat="43.7357" lon="7.01788">
        <ele>831</ele>
        <time>2009-11-21T11:02:29Z</time>
      </trkpt>
      <trkpt lat="43.73579" lon="7.01787">
        <ele>827</ele>
        <time>2009-11-21T11:02:48Z</time>
      </trkpt>
      <trkpt lat="43.73579" lon="7.01786">
        <ele>838</ele>
        <time>2009-11-21T11:03:01Z</time>
      </trkpt>
      <trkpt lat="43.73589" lon="7.0179">
        <ele>871</ele>
        <time>2009-11-21T11:03:14Z</time>
      </trkpt>
      <trkpt lat="43.73586" lon="7.01789">
        <ele>882</ele>
        <time>2009-11-21T11:03:27Z</time>
      </trkpt>
      <trkpt lat="43.73584" lon="7.01788">
        <ele>874</ele>
        <time>2009-11-21T11:03:40Z</time>
      </trkpt>
      <trkpt lat="43.73582" lon="7.01788">
        <ele>860</ele>
        <time>2009-11-21T11:04:00Z</time>
      </trkpt>
      <trkpt lat="43.7358" lon="7.01788">
        <ele>855</ele>
        <time>2009-11-21T11:04:14Z</time>
      </trkpt>
      <trkpt lat="43.73578" lon="7.01789">
        <ele>848</ele>
        <time>2009-11-21T11:04:31Z</time>
      </trkpt>
      <trkpt lat="43.73577" lon="7.01787">
        <ele>845</ele>
        <time>2009-11-21T11:04:49Z</time>
      </trkpt>
      <trkpt lat="43.73577" lon="7.01789">
        <ele>845</ele>
        <time>2009-11-21T11:05:09Z</time>
      </trkpt>
      <trkpt lat="43.73577" lon="7.0179">
        <ele>845</ele>
        <time>2009-11-21T11:05:30Z</time>
      </trkpt>
      <trkpt lat="43.73576" lon="7.01791">
        <ele>842</ele>
        <time>2009-11-21T11:05:40Z</time>
      </trkpt>
      <trkpt lat="43.73578" lon="7.01794">
        <ele>841</ele>
        <time>2009-11-21T11:05:51Z</time>
      </trkpt>
      <trkpt lat="43.73575" lon="7.01799">
        <ele>844</ele>
        <time>2009-11-21T11:06:01Z</time>
      </trkpt>
      <trkpt lat="43.73573" lon="7.01803">
        <ele>842</ele>
        <time>2009-11-21T11:06:14Z</time>
      </trkpt>
      <trkpt lat="43.73573" lon="7.01812">
        <ele>848</ele>
        <time>2009-11-21T11:06:25Z</time>
      </trkpt>
      <trkpt lat="43.73572" lon="7.01817">
        <ele>848</ele>
        <time>2009-11-21T11:06:38Z</time>
      </trkpt>
      <trkpt lat="43.73572" lon="7.01829">
        <ele>843</ele>
        <time>2009-11-21T11:06:50Z</time>
      </trkpt>
      <trkpt lat="43.73574" lon="7.01846">
        <ele>843</ele>
        <time>2009-11-21T11:07:00Z</time>
      </trkpt>
      <trkpt lat="43.73577" lon="7.01857">
        <ele>845</ele>
        <time>2009-11-21T11:07:11Z</time>
      </trkpt>
      <trkpt lat="43.7358" lon="7.01871">
        <ele>850</ele>
        <time>2009-11-21T11:07:21Z</time>
      </trkpt>
      <trkpt lat="43.73583" lon="7.01883">
        <ele>854</ele>
        <time>2009-11-21T11:07:32Z</time>
      </trkpt>
      <trkpt lat="43.73584" lon="7.01887">
        <ele>858</ele>
        <time>2009-11-21T11:07:45Z</time>
      </trkpt>
      <trkpt lat="43.73585" lon="7.01893">
        <ele>849</ele>
        <time>2009-11-21T11:07:59Z</time>
      </trkpt>
      <trkpt lat="43.73587" lon="7.01894">
        <ele>856</ele>
        <time>2009-11-21T11:08:15Z</time>
      </trkpt>
      <trkpt lat="43.73589" lon="7.019">
        <ele>857</ele>
        <time>2009-11-21T11:08:25Z</time>
      </trkpt>
      <trkpt lat="43.73592" lon="7.01915">
        <ele>859</ele>
        <time>2009-11-21T11:08:35Z</time>
      </trkpt>
      <trkpt lat="43.73594" lon="7.01932">
        <ele>861</ele>
        <time>2009-11-21T11:08:45Z</time>
      </trkpt>
      <trkpt lat="43.73595" lon="7.01939">
        <ele>866</ele>
        <time>2009-11-21T11:08:57Z</time>
      </trkpt>
      <trkpt lat="43.73596" lon="7.01947">
        <ele>876</ele>
        <time>2009-11-21T11:09:07Z</time>
      </trkpt>
      <trkpt lat="43.73593" lon="7.01954">
        <ele>870</ele>
        <time>2009-11-21T11:09:21Z</time>
      </trkpt>
      <trkpt lat="43.73593" lon="7.01957">
        <ele>870</ele>
        <time>2009-11-21T11:09:31Z</time>
      </trkpt>
      <trkpt lat="43.73592" lon="7.01961">
        <ele>865</ele>
        <time>2009-11-21T11:09:45Z</time>
      </trkpt>
      <trkpt lat="43.73595" lon="7.01959">
        <ele>862</ele>
        <time>2009-11-21T11:09:57Z</time>
      </trkpt>
      <trkpt lat="43.73594" lon="7.01967">
        <ele>864</ele>
        <time>2009-11-21T11:10:14Z</time>
      </trkpt>
      <trkpt lat="43.73591" lon="7.01977">
        <ele>870</ele>
        <time>2009-11-21T11:10:25Z</time>
      </trkpt>
      <trkpt lat="43.73589" lon="7.01985">
        <ele>872</ele>
        <time>2009-11-21T11:10:36Z</time>
      </trkpt>
      <trkpt lat="43.73585" lon="7.01988">
        <ele>874</ele>
        <time>2009-11-21T11:10:46Z</time>
      </trkpt>
      <trkpt lat="43.73584" lon="7.01989">
        <ele>883</ele>
        <time>2009-11-21T11:10:58Z</time>
      </trkpt>
      <trkpt lat="43.73585" lon="7.02001">
        <ele>887</ele>
        <time>2009-11-21T11:11:10Z</time>
      </trkpt>
      <trkpt lat="43.73583" lon="7.02012">
        <ele>888</ele>
        <time>2009-11-21T11:11:25Z</time>
      </trkpt>
      <trkpt lat="43.73581" lon="7.02023">
        <ele>888</ele>
        <time>2009-11-21T11:11:36Z</time>
      </trkpt>
      <trkpt lat="43.73578" lon="7.0203">
        <ele>891</ele>
        <time>2009-11-21T11:11:48Z</time>
      </trkpt>
      <trkpt lat="43.73576" lon="7.02035">
        <ele>891</ele>
        <time>2009-11-21T11:11:59Z</time>
      </trkpt>
      <trkpt lat="43.73575" lon="7.02043">
        <ele>885</ele>
        <time>2009-11-21T11:12:11Z</time>
      </trkpt>
      <trkpt lat="43.73573" lon="7.0205">
        <ele>889</ele>
        <time>2009-11-21T11:12:22Z</time>
      </trkpt>
      <trkpt lat="43.73575" lon="7.02054">
        <ele>893</ele>
        <time>2009-11-21T11:12:34Z</time>
      </trkpt>
      <trkpt lat="43.73569" lon="7.02062">
        <ele>893</ele>
        <time>2009-11-21T11:12:47Z</time>
      </trkpt>
      <trkpt lat="43.73568" lon="7.02072">
        <ele>893</ele>
        <time>2009-11-21T11:13:00Z</time>
      </trkpt>
      <trkpt lat="43.73569" lon="7.02073">
        <ele>897</ele>
        <time>2009-11-21T11:13:14Z</time>
      </trkpt>
      <trkpt lat="43.73566" lon="7.02077">
        <ele>899</ele>
        <time>2009-11-21T11:13:24Z</time>
      </trkpt>
      <trkpt lat="43.73564" lon="7.0209">
        <ele>899</ele>
        <time>2009-11-21T11:13:35Z</time>
      </trkpt>
      <trkpt lat="43.73563" lon="7.02093">
        <ele>899</ele>
        <time>2009-11-21T11:13:46Z</time>
      </trkpt>
      <trkpt lat="43.73563" lon="7.02105">
        <ele>899</ele>
        <time>2009-11-21T11:13:57Z</time>
      </trkpt>
      <trkpt lat="43.73565" lon="7.02112">
        <ele>901</ele>
        <time>2009-11-21T11:14:08Z</time>
      </trkpt>
      <trkpt lat="43.73563" lon="7.02125">
        <ele>904</ele>
        <time>2009-11-21T11:14:20Z</time>
      </trkpt>
      <trkpt lat="43.73561" lon="7.02134">
        <ele>912</ele>
        <time>2009-11-21T11:14:32Z</time>
      </trkpt>
      <trkpt lat="43.73554" lon="7.02141">
        <ele>916</ele>
        <time>2009-11-21T11:14:46Z</time>
      </trkpt>
      <trkpt lat="43.73544" lon="7.02147">
        <ele>916</ele>
        <time>2009-11-21T11:15:00Z</time>
      </trkpt>
      <trkpt lat="43.73545" lon="7.02147">
        <ele>914</ele>
        <time>2009-11-21T11:15:14Z</time>
      </trkpt>
      <trkpt lat="43.73543" lon="7.02144">
        <ele>914</ele>
        <time>2009-11-21T11:15:23Z</time>
      </trkpt>
      <trkpt lat="43.73542" lon="7.02142">
        <ele>914</ele>
        <time>2009-11-21T11:15:47Z</time>
      </trkpt>
      <trkpt lat="43.73542" lon="7.02141">
        <ele>914</ele>
        <time>2009-11-21T11:16:02Z</time>
      </trkpt>
      <trkpt lat="43.73542" lon="7.02139">
        <ele>914</ele>
        <time>2009-11-21T11:16:14Z</time>
      </trkpt>
      <trkpt lat="43.73543" lon="7.02141">
        <ele>914</ele>
        <time>2009-11-21T11:16:14Z</time>
      </trkpt>
      <trkpt lat="43.73542" lon="7.02139">
        <ele>914</ele>
        <time>2009-11-21T11:16:25Z</time>
      </trkpt>
      <trkpt lat="43.73543" lon="7.02143">
        <ele>914</ele>
        <time>2009-11-21T11:16:35Z</time>
      </trkpt>
      <trkpt lat="43.7354" lon="7.0215">
        <ele>901</ele>
        <time>2009-11-21T11:16:50Z</time>
      </trkpt>
      <trkpt lat="43.7354" lon="7.02153">
        <ele>896</ele>
        <time>2009-11-21T11:17:03Z</time>
      </trkpt>
      <trkpt lat="43.7354" lon="7.02156">
        <ele>895</ele>
        <time>2009-11-21T11:17:18Z</time>
      </trkpt>
      <trkpt lat="43.73541" lon="7.02156">
        <ele>895</ele>
        <time>2009-11-21T11:17:30Z</time>
      </trkpt>
      <trkpt lat="43.73542" lon="7.02155">
        <ele>895</ele>
        <time>2009-11-21T11:17:43Z</time>
      </trkpt>
      <trkpt lat="43.73533" lon="7.02163">
        <ele>890</ele>
        <time>2009-11-21T11:17:53Z</time>
      </trkpt>
      <trkpt lat="43.7352" lon="7.02179">
        <ele>870</ele>
        <time>2009-11-21T11:18:06Z</time>
      </trkpt>
      <trkpt lat="43.73523" lon="7.02177">
        <ele>864</ele>
        <time>2009-11-21T11:18:16Z</time>
      </trkpt>
      <trkpt lat="43.73529" lon="7.02171">
        <ele>872</ele>
        <time>2009-11-21T11:18:26Z</time>
      </trkpt>
      <trkpt lat="43.73533" lon="7.02166">
        <ele>882</ele>
        <time>2009-11-21T11:18:36Z</time>
      </trkpt>
      <trkpt lat="43.73537" lon="7.02161">
        <ele>892</ele>
        <time>2009-11-21T11:18:46Z</time>
      </trkpt>
      <trkpt lat="43.73536" lon="7.02158">
        <ele>895</ele>
        <time>2009-11-21T11:19:00Z</time>
      </trkpt>
      <trkpt lat="43.73536" lon="7.02157">
        <ele>895</ele>
        <time>2009-11-21T11:19:10Z</time>
      </trkpt>
      <trkpt lat="43.73537" lon="7.02155">
        <ele>895</ele>
        <time>2009-11-21T11:19:21Z</time>
      </trkpt>
      <trkpt lat="43.73539" lon="7.02156">
        <ele>895</ele>
        <time>2009-11-21T11:19:36Z</time>
      </trkpt>
      <trkpt lat="43.7354" lon="7.02158">
        <ele>891</ele>
        <time>2009-11-21T11:19:59Z</time>
      </trkpt>
      <trkpt lat="43.73544" lon="7.02147">
        <ele>892</ele>
        <time>2009-11-21T11:20:10Z</time>
      </trkpt>
      <trkpt lat="43.73543" lon="7.02146">
        <ele>895</ele>
        <time>2009-11-21T11:20:20Z</time>
      </trkpt>
      <trkpt lat="43.73541" lon="7.02147">
        <ele>898</ele>
        <time>2009-11-21T11:20:31Z</time>
      </trkpt>
      <trkpt lat="43.7354" lon="7.0215">
        <ele>898</ele>
        <time>2009-11-21T11:20:42Z</time>
      </trkpt>
      <trkpt lat="43.73534" lon="7.02153">
        <ele>898</ele>
        <time>2009-11-21T11:20:52Z</time>
      </trkpt>
      <trkpt lat="43.7353" lon="7.0216">
        <ele>898</ele>
        <time>2009-11-21T11:21:07Z</time>
      </trkpt>
      <trkpt lat="43.73526" lon="7.02169">
        <ele>901</ele>
        <time>2009-11-21T11:21:17Z</time>
      </trkpt>
      <trkpt lat="43.73524" lon="7.02174">
        <ele>906</ele>
        <time>2009-11-21T11:21:27Z</time>
      </trkpt>
      <trkpt lat="43.73522" lon="7.02181">
        <ele>908</ele>
        <time>2009-11-21T11:21:39Z</time>
      </trkpt>
      <trkpt lat="43.73524" lon="7.02183">
        <ele>916</ele>
        <time>2009-11-21T11:21:53Z</time>
      </trkpt>
      <trkpt lat="43.73525" lon="7.02191">
        <ele>918</ele>
        <time>2009-11-21T11:22:04Z</time>
      </trkpt>
      <trkpt lat="43.73531" lon="7.02194">
        <ele>918</ele>
        <time>2009-11-21T11:22:15Z</time>
      </trkpt>
      <trkpt lat="43.73534" lon="7.02193">
        <ele>918</ele>
        <time>2009-11-21T11:22:28Z</time>
      </trkpt>
      <trkpt lat="43.73529" lon="7.02198">
        <ele>910</ele>
        <time>2009-11-21T11:22:42Z</time>
      </trkpt>
      <trkpt lat="43.73526" lon="7.02202">
        <ele>899</ele>
        <time>2009-11-21T11:22:53Z</time>
      </trkpt>
      <trkpt lat="43.73524" lon="7.02204">
        <ele>886</ele>
        <time>2009-11-21T11:22:58Z</time>
      </trkpt>
      <trkpt lat="43.73525" lon="7.02202">
        <ele>885</ele>
        <time>2009-11-21T11:23:08Z</time>
      </trkpt>
      <trkpt lat="43.7353" lon="7.02197">
        <ele>891</ele>
        <time>2009-11-21T11:23:19Z</time>
      </trkpt>
      <trkpt lat="43.73533" lon="7.02194">
        <ele>911</ele>
        <time>2009-11-21T11:23:37Z</time>
      </trkpt>
      <trkpt lat="43.73529" lon="7.02196">
        <ele>919</ele>
        <time>2009-11-21T11:23:48Z</time>
      </trkpt>
      <trkpt lat="43.7353" lon="7.02199">
        <ele>920</ele>
        <time>2009-11-21T11:23:58Z</time>
      </trkpt>
      <trkpt lat="43.73528" lon="7.02201">
        <ele>920</ele>
        <time>2009-11-21T11:24:11Z</time>
      </trkpt>
      <trkpt lat="43.73526" lon="7.02199">
        <ele>918</ele>
        <time>2009-11-21T11:24:24Z</time>
      </trkpt>
      <trkpt lat="43.73529" lon="7.0219">
        <ele>918</ele>
        <time>2009-11-21T11:24:37Z</time>
      </trkpt>
      <trkpt lat="43.73529" lon="7.02187">
        <ele>919</ele>
        <time>2009-11-21T11:24:48Z</time>
      </trkpt>
      <trkpt lat="43.73526" lon="7.02176">
        <ele>919</ele>
        <time>2009-11-21T11:24:58Z</time>
      </trkpt>
      <trkpt lat="43.73526" lon="7.02161">
        <ele>916</ele>
        <time>2009-11-21T11:25:08Z</time>
      </trkpt>
      <trkpt lat="43.73528" lon="7.02154">
        <ele>913</ele>
        <time>2009-11-21T11:25:26Z</time>
      </trkpt>
      <trkpt lat="43.73528" lon="7.02156">
        <ele>913</ele>
        <time>2009-11-21T11:25:37Z</time>
      </trkpt>
      <trkpt lat="43.7353" lon="7.02157">
        <ele>905</ele>
        <time>2009-11-21T11:25:48Z</time>
      </trkpt>
      <trkpt lat="43.73532" lon="7.02155">
        <ele>900</ele>
        <time>2009-11-21T11:25:59Z</time>
      </trkpt>
      <trkpt lat="43.73531" lon="7.02155">
        <ele>898</ele>
        <time>2009-11-21T11:26:11Z</time>
      </trkpt>
      <trkpt lat="43.73534" lon="7.02154">
        <ele>898</ele>
        <time>2009-11-21T11:26:26Z</time>
      </trkpt>
      <trkpt lat="43.73537" lon="7.02153">
        <ele>897</ele>
        <time>2009-11-21T11:26:39Z</time>
      </trkpt>
      <trkpt lat="43.7354" lon="7.02151">
        <ele>897</ele>
        <time>2009-11-21T11:26:50Z</time>
      </trkpt>
      <trkpt lat="43.73543" lon="7.02148">
        <ele>897</ele>
        <time>2009-11-21T11:27:03Z</time>
      </trkpt>
      <trkpt lat="43.73559" lon="7.02126">
        <ele>897</ele>
        <time>2009-11-21T11:27:13Z</time>
      </trkpt>
      <trkpt lat="43.73558" lon="7.02062">
        <ele>893</ele>
        <time>2009-11-21T11:27:23Z</time>
      </trkpt>
      <trkpt lat="43.73571" lon="7.02003">
        <ele>883</ele>
        <time>2009-11-21T11:27:33Z</time>
      </trkpt>
      <trkpt lat="43.73583" lon="7.01953">
        <ele>866</ele>
        <time>2009-11-21T11:27:43Z</time>
      </trkpt>
      <trkpt lat="43.7358" lon="7.01885">
        <ele>853</ele>
        <time>2009-11-21T11:27:53Z</time>
      </trkpt>
      <trkpt lat="43.73571" lon="7.01783">
        <ele>840</ele>
        <time>2009-11-21T11:28:03Z</time>
      </trkpt>
      <trkpt lat="43.73583" lon="7.01777">
        <ele>825</ele>
        <time>2009-11-21T11:28:14Z</time>
      </trkpt>
      <trkpt lat="43.73594" lon="7.0177">
        <ele>819</ele>
        <time>2009-11-21T11:28:26Z</time>
      </trkpt>
      <trkpt lat="43.73598" lon="7.01766">
        <ele>825</ele>
        <time>2009-11-21T11:28:37Z</time>
      </trkpt>
      <trkpt lat="43.73598" lon="7.01763">
        <ele>829</ele>
        <time>2009-11-21T11:28:52Z</time>
      </trkpt>
      <trkpt lat="43.73594" lon="7.01765">
        <ele>831</ele>
        <time>2009-11-21T11:29:06Z</time>
      </trkpt>
      <trkpt lat="43.73592" lon="7.01767">
        <ele>828</ele>
        <time>2009-11-21T11:29:16Z</time>
      </trkpt>
      <trkpt lat="43.7359" lon="7.01769">
        <ele>828</ele>
        <time>2009-11-21T11:29:28Z</time>
      </trkpt>
      <trkpt lat="43.73591" lon="7.0177">
        <ele>827</ele>
        <time>2009-11-21T11:29:34Z</time>
      </trkpt>
      <trkpt lat="43.73592" lon="7.01769">
        <ele>827</ele>
        <time>2009-11-21T11:29:48Z</time>
      </trkpt>
      <trkpt lat="43.7359" lon="7.01769">
        <ele>828</ele>
        <time>2009-11-21T11:30:01Z</time>
      </trkpt>
      <trkpt lat="43.73575" lon="7.0179">
        <ele>829</ele>
        <time>2009-11-21T11:30:11Z</time>
      </trkpt>
      <trkpt lat="43.73574" lon="7.01789">
        <ele>831</ele>
        <time>2009-11-21T11:30:22Z</time>
      </trkpt>
      <trkpt lat="43.73578" lon="7.01789">
        <ele>841</ele>
        <time>2009-11-21T11:30:39Z</time>
      </trkpt>
      <trkpt lat="43.73578" lon="7.01788">
        <ele>851</ele>
        <time>2009-11-21T11:31:01Z</time>
      </trkpt>
      <trkpt lat="43.73578" lon="7.01791">
        <ele>852</ele>
        <time>2009-11-21T11:31:12Z</time>
      </trkpt>
      <trkpt lat="43.73583" lon="7.01792">
        <ele>851</ele>
        <time>2009-11-21T11:31:23Z</time>
      </trkpt>
      <trkpt lat="43.73589" lon="7.01786">
        <ele>858</ele>
        <time>2009-11-21T11:31:34Z</time>
      </trkpt>
      <trkpt lat="43.73587" lon="7.01785">
        <ele>863</ele>
        <time>2009-11-21T11:31:38Z</time>
      </trkpt>
      <trkpt lat="43.73583" lon="7.01787">
        <ele>858</ele>
        <time>2009-11-21T11:31:49Z</time>
      </trkpt>
      <trkpt lat="43.73584" lon="7.01787">
        <ele>857</ele>
        <time>2009-11-21T11:31:52Z</time>
      </trkpt>
      <trkpt lat="43.73587" lon="7.01788">
        <ele>861</ele>
        <time>2009-11-21T11:32:04Z</time>
      </trkpt>
      <trkpt lat="43.73591" lon="7.01787">
        <ele>870</ele>
        <time>2009-11-21T11:32:15Z</time>
      </trkpt>
      <trkpt lat="43.73591" lon="7.01788">
        <ele>877</ele>
        <time>2009-11-21T11:32:30Z</time>
      </trkpt>
      <trkpt lat="43.73589" lon="7.01789">
        <ele>877</ele>
        <time>2009-11-21T11:32:41Z</time>
      </trkpt>
      <trkpt lat="43.73585" lon="7.01789">
        <ele>865</ele>
        <time>2009-11-21T11:32:55Z</time>
      </trkpt>
      <trkpt lat="43.73584" lon="7.0179">
        <ele>861</ele>
        <time>2009-11-21T11:32:59Z</time>
      </trkpt>
      <trkpt lat="43.73581" lon="7.01791">
        <ele>859</ele>
        <time>2009-11-21T11:33:10Z</time>
      </trkpt>
      <trkpt lat="43.73577" lon="7.01793">
        <ele>851</ele>
        <time>2009-11-21T11:33:21Z</time>
      </trkpt>
      <trkpt lat="43.73577" lon="7.01792">
        <ele>847</ele>
        <time>2009-11-21T11:33:33Z</time>
      </trkpt>
      <trkpt lat="43.73583" lon="7.01786">
        <ele>852</ele>
        <time>2009-11-21T11:33:45Z</time>
      </trkpt>
      <trkpt lat="43.73585" lon="7.01785">
        <ele>858</ele>
        <time>2009-11-21T11:33:56Z</time>
      </trkpt>
      <trkpt lat="43.73583" lon="7.01788">
        <ele>858</ele>
        <time>2009-11-21T11:34:06Z</time>
      </trkpt>
      <trkpt lat="43.7358" lon="7.01783">
        <ele>849</ele>
        <time>2009-11-21T11:34:16Z</time>
      </trkpt>
      <trkpt lat="43.73585" lon="7.0177">
        <ele>832</ele>
        <time>2009-11-21T11:34:29Z</time>
      </trkpt>
      <trkpt lat="43.73586" lon="7.01768">
        <ele>826</ele>
        <time>2009-11-21T11:34:42Z</time>
      </trkpt>
      <trkpt lat="43.73586" lon="7.01768">
        <ele>825</ele>
        <time>2009-11-21T11:34:57Z</time>
      </trkpt>
      <trkpt lat="43.73586" lon="7.01763">
        <ele>826</ele>
        <time>2009-11-21T11:35:10Z</time>
      </trkpt>
      <trkpt lat="43.73597" lon="7.01763">
        <ele>829</ele>
        <time>2009-11-21T11:35:20Z</time>
      </trkpt>
      <trkpt lat="43.73619" lon="7.01776">
        <ele>830</ele>
        <time>2009-11-21T11:35:30Z</time>
      </trkpt>
      <trkpt lat="43.73643" lon="7.01794">
        <ele>830</ele>
        <time>2009-11-21T11:35:40Z</time>
      </trkpt>
      <trkpt lat="43.73681" lon="7.01795">
        <ele>830</ele>
        <time>2009-11-21T11:35:50Z</time>
      </trkpt>
      <trkpt lat="43.73711" lon="7.0179">
        <ele>830</ele>
        <time>2009-11-21T11:36:00Z</time>
      </trkpt>
      <trkpt lat="43.73732" lon="7.01784">
        <ele>830</ele>
        <time>2009-11-21T11:36:10Z</time>
      </trkpt>
      <trkpt lat="43.73756" lon="7.01786">
        <ele>834</ele>
        <time>2009-11-21T11:36:20Z</time>
      </trkpt>
      <trkpt lat="43.73781" lon="7.01783">
        <ele>838</ele>
        <time>2009-11-21T11:36:30Z</time>
      </trkpt>
      <trkpt lat="43.73813" lon="7.01782">
        <ele>839</ele>
        <time>2009-11-21T11:36:40Z</time>
      </trkpt>
      <trkpt lat="43.73836" lon="7.01778">
        <ele>839</ele>
        <time>2009-11-21T11:36:50Z</time>
      </trkpt>
      <trkpt lat="43.7386" lon="7.01778">
        <ele>839</ele>
        <time>2009-11-21T11:37:00Z</time>
      </trkpt>
      <trkpt lat="43.73882" lon="7.01777">
        <ele>839</ele>
        <time>2009-11-21T11:37:10Z</time>
      </trkpt>
      <trkpt lat="43.73903" lon="7.01774">
        <ele>843</ele>
        <time>2009-11-21T11:37:21Z</time>
      </trkpt>
      <trkpt lat="43.7392" lon="7.01771">
        <ele>845</ele>
        <time>2009-11-21T11:37:31Z</time>
      </trkpt>
      <trkpt lat="43.7394" lon="7.01766">
        <ele>847</ele>
        <time>2009-11-21T11:37:41Z</time>
      </trkpt>
      <trkpt lat="43.73955" lon="7.01764">
        <ele>851</ele>
        <time>2009-11-21T11:37:51Z</time>
      </trkpt>
      <trkpt lat="43.73973" lon="7.01766">
        <ele>855</ele>
        <time>2009-11-21T11:38:01Z</time>
      </trkpt>
      <trkpt lat="43.73989" lon="7.01774">
        <ele>855</ele>
        <time>2009-11-21T11:38:11Z</time>
      </trkpt>
      <trkpt lat="43.74007" lon="7.0178">
        <ele>855</ele>
        <time>2009-11-21T11:38:21Z</time>
      </trkpt>
      <trkpt lat="43.74024" lon="7.01784">
        <ele>856</ele>
        <time>2009-11-21T11:38:31Z</time>
      </trkpt>
      <trkpt lat="43.74043" lon="7.01789">
        <ele>857</ele>
        <time>2009-11-21T11:38:41Z</time>
      </trkpt>
      <trkpt lat="43.74067" lon="7.01798">
        <ele>858</ele>
        <time>2009-11-21T11:38:51Z</time>
      </trkpt>
      <trkpt lat="43.74087" lon="7.01808">
        <ele>858</ele>
        <time>2009-11-21T11:39:01Z</time>
      </trkpt>
      <trkpt lat="43.74113" lon="7.01816">
        <ele>856</ele>
        <time>2009-11-21T11:39:11Z</time>
      </trkpt>
      <trkpt lat="43.74142" lon="7.01811">
        <ele>856</ele>
        <time>2009-11-21T11:39:21Z</time>
      </trkpt>
      <trkpt lat="43.74164" lon="7.01804">
        <ele>855</ele>
        <time>2009-11-21T11:39:31Z</time>
      </trkpt>
      <trkpt lat="43.74188" lon="7.01797">
        <ele>855</ele>
        <time>2009-11-21T11:39:41Z</time>
      </trkpt>
      <trkpt lat="43.7421" lon="7.0179">
        <ele>860</ele>
        <time>2009-11-21T11:39:51Z</time>
      </trkpt>
      <trkpt lat="43.7423" lon="7.01784">
        <ele>860</ele>
        <time>2009-11-21T11:40:01Z</time>
      </trkpt>
      <trkpt lat="43.74249" lon="7.01778">
        <ele>861</ele>
        <time>2009-11-21T11:40:11Z</time>
      </trkpt>
      <trkpt lat="43.74275" lon="7.01767">
        <ele>866</ele>
        <time>2009-11-21T11:40:21Z</time>
      </trkpt>
      <trkpt lat="43.74304" lon="7.01758">
        <ele>871</ele>
        <time>2009-11-21T11:40:31Z</time>
      </trkpt>
      <trkpt lat="43.74331" lon="7.01741">
        <ele>872</ele>
        <time>2009-11-21T11:40:41Z</time>
      </trkpt>
      <trkpt lat="43.7435" lon="7.01731">
        <ele>873</ele>
        <time>2009-11-21T11:40:51Z</time>
      </trkpt>
      <trkpt lat="43.74361" lon="7.01714">
        <ele>870</ele>
        <time>2009-11-21T11:41:01Z</time>
      </trkpt>
      <trkpt lat="43.74379" lon="7.017">
        <ele>865</ele>
        <time>2009-11-21T11:41:11Z</time>
      </trkpt>
      <trkpt lat="43.74398" lon="7.01682">
        <ele>864</ele>
        <time>2009-11-21T11:41:21Z</time>
      </trkpt>
      <trkpt lat="43.74418" lon="7.01661">
        <ele>865</ele>
        <time>2009-11-21T11:41:31Z</time>
      </trkpt>
      <trkpt lat="43.74436" lon="7.01646">
        <ele>863</ele>
        <time>2009-11-21T11:41:41Z</time>
      </trkpt>
      <trkpt lat="43.74453" lon="7.0163">
        <ele>863</ele>
        <time>2009-11-21T11:41:51Z</time>
      </trkpt>
      <trkpt lat="43.74467" lon="7.0161">
        <ele>863</ele>
        <time>2009-11-21T11:42:01Z</time>
      </trkpt>
      <trkpt lat="43.74485" lon="7.01597">
        <ele>863</ele>
        <time>2009-11-21T11:42:11Z</time>
      </trkpt>
      <trkpt lat="43.745" lon="7.01587">
        <ele>863</ele>
        <time>2009-11-21T11:42:21Z</time>
      </trkpt>
      <trkpt lat="43.74513" lon="7.01571">
        <ele>863</ele>
        <time>2009-11-21T11:42:32Z</time>
      </trkpt>
      <trkpt lat="43.74531" lon="7.01553">
        <ele>862</ele>
        <time>2009-11-21T11:42:42Z</time>
      </trkpt>
      <trkpt lat="43.74555" lon="7.01545">
        <ele>865</ele>
        <time>2009-11-21T11:42:52Z</time>
      </trkpt>
      <trkpt lat="43.74579" lon="7.01536">
        <ele>865</ele>
        <time>2009-11-21T11:43:02Z</time>
      </trkpt>
      <trkpt lat="43.74609" lon="7.01526">
        <ele>872</ele>
        <time>2009-11-21T11:43:12Z</time>
      </trkpt>
      <trkpt lat="43.74631" lon="7.01523">
        <ele>877</ele>
        <time>2009-11-21T11:43:22Z</time>
      </trkpt>
      <trkpt lat="43.74642" lon="7.0152">
        <ele>877</ele>
        <time>2009-11-21T11:43:32Z</time>
      </trkpt>
      <trkpt lat="43.74656" lon="7.01508">
        <ele>873</ele>
        <time>2009-11-21T11:43:42Z</time>
      </trkpt>
      <trkpt lat="43.74667" lon="7.01492">
        <ele>870</ele>
        <time>2009-11-21T11:43:52Z</time>
      </trkpt>
      <trkpt lat="43.74682" lon="7.01473">
        <ele>870</ele>
        <time>2009-11-21T11:44:02Z</time>
      </trkpt>
      <trkpt lat="43.74691" lon="7.01445">
        <ele>871</ele>
        <time>2009-11-21T11:44:12Z</time>
      </trkpt>
      <trkpt lat="43.74701" lon="7.01427">
        <ele>872</ele>
        <time>2009-11-21T11:44:22Z</time>
      </trkpt>
      <trkpt lat="43.74708" lon="7.01412">
        <ele>873</ele>
        <time>2009-11-21T11:44:33Z</time>
      </trkpt>
      <trkpt lat="43.74711" lon="7.01412">
        <ele>874</ele>
        <time>2009-11-21T11:44:47Z</time>
      </trkpt>
      <trkpt lat="43.74714" lon="7.01411">
        <ele>877</ele>
        <time>2009-11-21T11:45:01Z</time>
      </trkpt>
      <trkpt lat="43.74715" lon="7.01411">
        <ele>879</ele>
        <time>2009-11-21T11:45:13Z</time>
      </trkpt>
      <trkpt lat="43.74716" lon="7.0141">
        <ele>881</ele>
        <time>2009-11-21T11:45:29Z</time>
      </trkpt>
      <trkpt lat="43.7472" lon="7.01407">
        <ele>886</ele>
        <time>2009-11-21T11:45:42Z</time>
      </trkpt>
      <trkpt lat="43.74721" lon="7.01409">
        <ele>888</ele>
        <time>2009-11-21T11:45:44Z</time>
      </trkpt>
      <trkpt lat="43.7472" lon="7.01409">
        <ele>888</ele>
        <time>2009-11-21T11:46:00Z</time>
      </trkpt>
      <trkpt lat="43.74719" lon="7.0141">
        <ele>887</ele>
        <time>2009-11-21T11:46:19Z</time>
      </trkpt>
      <trkpt lat="43.74718" lon="7.01409">
        <ele>887</ele>
        <time>2009-11-21T11:46:35Z</time>
      </trkpt>
      <trkpt lat="43.74717" lon="7.0141">
        <ele>886</ele>
        <time>2009-11-21T11:46:50Z</time>
      </trkpt>
      <trkpt lat="43.74716" lon="7.01411">
        <ele>885</ele>
        <time>2009-11-21T11:47:03Z</time>
      </trkpt>
      <trkpt lat="43.74716" lon="7.01413">
        <ele>885</ele>
        <time>2009-11-21T11:47:15Z</time>
      </trkpt>
      <trkpt lat="43.74716" lon="7.01413">
        <ele>885</ele>
        <time>2009-11-21T11:47:27Z</time>
      </trkpt>
      <trkpt lat="43.74714" lon="7.01414">
        <ele>878</ele>
        <time>2009-11-21T11:47:32Z</time>
      </trkpt>
      <trkpt lat="43.74715" lon="7.01413">
        <ele>875</ele>
        <time>2009-11-21T11:47:52Z</time>
      </trkpt>
      <trkpt lat="43.74717" lon="7.01411">
        <ele>875</ele>
        <time>2009-11-21T11:48:04Z</time>
      </trkpt>
      <trkpt lat="43.74717" lon="7.01411">
        <ele>875</ele>
        <time>2009-11-21T11:48:24Z</time>
      </trkpt>
      <trkpt lat="43.74717" lon="7.01411">
        <ele>875</ele>
        <time>2009-11-21T11:48:49Z</time>
      </trkpt>
      <trkpt lat="43.7473" lon="7.014">
        <ele>877</ele>
        <time>2009-11-21T11:48:59Z</time>
      </trkpt>
      <trkpt lat="43.74753" lon="7.01416">
        <ele>877</ele>
        <time>2009-11-21T11:49:09Z</time>
      </trkpt>
      <trkpt lat="43.74778" lon="7.01447">
        <ele>881</ele>
        <time>2009-11-21T11:49:19Z</time>
      </trkpt>
      <trkpt lat="43.748" lon="7.01463">
        <ele>886</ele>
        <time>2009-11-21T11:49:29Z</time>
      </trkpt>
      <trkpt lat="43.7481" lon="7.01484">
        <ele>886</ele>
        <time>2009-11-21T11:49:39Z</time>
      </trkpt>
      <trkpt lat="43.74829" lon="7.01509">
        <ele>886</ele>
        <time>2009-11-21T11:49:49Z</time>
      </trkpt>
      <trkpt lat="43.74846" lon="7.01539">
        <ele>891</ele>
        <time>2009-11-21T11:49:59Z</time>
      </trkpt>
      <trkpt lat="43.74871" lon="7.01558">
        <ele>895</ele>
        <time>2009-11-21T11:50:09Z</time>
      </trkpt>
      <trkpt lat="43.74885" lon="7.01566">
        <ele>898</ele>
        <time>2009-11-21T11:50:19Z</time>
      </trkpt>
      <trkpt lat="43.74903" lon="7.01574">
        <ele>900</ele>
        <time>2009-11-21T11:50:29Z</time>
      </trkpt>
      <trkpt lat="43.74911" lon="7.01575">
        <ele>902</ele>
        <time>2009-11-21T11:50:39Z</time>
      </trkpt>
      <trkpt lat="43.74916" lon="7.01577">
        <ele>905</ele>
        <time>2009-11-21T11:50:53Z</time>
      </trkpt>
      <trkpt lat="43.74919" lon="7.01582">
        <ele>901</ele>
        <time>2009-11-21T11:51:03Z</time>
      </trkpt>
      <trkpt lat="43.7493" lon="7.01583">
        <ele>901</ele>
        <time>2009-11-21T11:51:14Z</time>
      </trkpt>
      <trkpt lat="43.74939" lon="7.01588">
        <ele>904</ele>
        <time>2009-11-21T11:51:25Z</time>
      </trkpt>
      <trkpt lat="43.74947" lon="7.01588">
        <ele>907</ele>
        <time>2009-11-21T11:51:35Z</time>
      </trkpt>
      <trkpt lat="43.74958" lon="7.01592">
        <ele>911</ele>
        <time>2009-11-21T11:51:48Z</time>
      </trkpt>
      <trkpt lat="43.74962" lon="7.01595">
        <ele>913</ele>
        <time>2009-11-21T11:51:58Z</time>
      </trkpt>
      <trkpt lat="43.7497" lon="7.016">
        <ele>913</ele>
        <time>2009-11-21T11:52:08Z</time>
      </trkpt>
      <trkpt lat="43.74979" lon="7.01602">
        <ele>913</ele>
        <time>2009-11-21T11:52:18Z</time>
      </trkpt>
      <trkpt lat="43.74988" lon="7.01604">
        <ele>915</ele>
        <time>2009-11-21T11:52:29Z</time>
      </trkpt>
      <trkpt lat="43.74999" lon="7.01606">
        <ele>919</ele>
        <time>2009-11-21T11:52:44Z</time>
      </trkpt>
      <trkpt lat="43.75007" lon="7.0161">
        <ele>919</ele>
        <time>2009-11-21T11:52:54Z</time>
      </trkpt>
      <trkpt lat="43.75015" lon="7.01611">
        <ele>919</ele>
        <time>2009-11-21T11:53:05Z</time>
      </trkpt>
      <trkpt lat="43.75024" lon="7.01613">
        <ele>923</ele>
        <time>2009-11-21T11:53:23Z</time>
      </trkpt>
      <trkpt lat="43.7504" lon="7.01615">
        <ele>923</ele>
        <time>2009-11-21T11:53:33Z</time>
      </trkpt>
      <trkpt lat="43.75052" lon="7.01612">
        <ele>928</ele>
        <time>2009-11-21T11:53:43Z</time>
      </trkpt>
      <trkpt lat="43.75057" lon="7.01614">
        <ele>929</ele>
        <time>2009-11-21T11:53:54Z</time>
      </trkpt>
      <trkpt lat="43.75058" lon="7.01614">
        <ele>932</ele>
        <time>2009-11-21T11:54:04Z</time>
      </trkpt>
      <trkpt lat="43.75062" lon="7.01617">
        <ele>932</ele>
        <time>2009-11-21T11:54:15Z</time>
      </trkpt>
      <trkpt lat="43.75072" lon="7.01615">
        <ele>934</ele>
        <time>2009-11-21T11:54:26Z</time>
      </trkpt>
      <trkpt lat="43.75074" lon="7.01613">
        <ele>941</ele>
        <time>2009-11-21T11:54:38Z</time>
      </trkpt>
      <trkpt lat="43.75081" lon="7.01611">
        <ele>945</ele>
        <time>2009-11-21T11:54:48Z</time>
      </trkpt>
      <trkpt lat="43.75086" lon="7.01604">
        <ele>951</ele>
        <time>2009-11-21T11:55:00Z</time>
      </trkpt>
      <trkpt lat="43.75098" lon="7.01606">
        <ele>946</ele>
        <time>2009-11-21T11:55:12Z</time>
      </trkpt>
      <trkpt lat="43.75101" lon="7.01604">
        <ele>940</ele>
        <time>2009-11-21T11:55:22Z</time>
      </trkpt>
      <trkpt lat="43.75104" lon="7.01603">
        <ele>935</ele>
        <time>2009-11-21T11:55:40Z</time>
      </trkpt>
      <trkpt lat="43.75106" lon="7.01604">
        <ele>934</ele>
        <time>2009-11-21T11:55:56Z</time>
      </trkpt>
      <trkpt lat="43.75103" lon="7.01605">
        <ele>933</ele>
        <time>2009-11-21T11:56:07Z</time>
      </trkpt>
      <trkpt lat="43.75101" lon="7.01605">
        <ele>933</ele>
        <time>2009-11-21T11:56:19Z</time>
      </trkpt>
      <trkpt lat="43.75103" lon="7.01606">
        <ele>931</ele>
        <time>2009-11-21T11:56:44Z</time>
      </trkpt>
      <trkpt lat="43.75118" lon="7.01608">
        <ele>931</ele>
        <time>2009-11-21T11:56:54Z</time>
      </trkpt>
      <trkpt lat="43.75143" lon="7.01618">
        <ele>931</ele>
        <time>2009-11-21T11:57:04Z</time>
      </trkpt>
      <trkpt lat="43.75181" lon="7.01641">
        <ele>931</ele>
        <time>2009-11-21T11:57:14Z</time>
      </trkpt>
      <trkpt lat="43.75215" lon="7.01678">
        <ele>931</ele>
        <time>2009-11-21T11:57:24Z</time>
      </trkpt>
      <trkpt lat="43.75255" lon="7.01711">
        <ele>931</ele>
        <time>2009-11-21T11:57:34Z</time>
      </trkpt>
      <trkpt lat="43.75288" lon="7.01747">
        <ele>931</ele>
        <time>2009-11-21T11:57:44Z</time>
      </trkpt>
      <trkpt lat="43.75313" lon="7.01764">
        <ele>931</ele>
        <time>2009-11-21T11:57:54Z</time>
      </trkpt>
      <trkpt lat="43.75331" lon="7.01777">
        <ele>936</ele>
        <time>2009-11-21T11:58:04Z</time>
      </trkpt>
      <trkpt lat="43.75342" lon="7.01785">
        <ele>939</ele>
        <time>2009-11-21T11:58:14Z</time>
      </trkpt>
      <trkpt lat="43.75345" lon="7.01788">
        <ele>940</ele>
        <time>2009-11-21T11:58:26Z</time>
      </trkpt>
      <trkpt lat="43.75348" lon="7.01789">
        <ele>942</ele>
        <time>2009-11-21T11:58:49Z</time>
      </trkpt>
      <trkpt lat="43.75349" lon="7.01789">
        <ele>942</ele>
        <time>2009-11-21T11:58:52Z</time>
      </trkpt>
      <trkpt lat="43.75355" lon="7.01792">
        <ele>942</ele>
        <time>2009-11-21T11:59:02Z</time>
      </trkpt>
      <trkpt lat="43.75376" lon="7.01794">
        <ele>942</ele>
        <time>2009-11-21T11:59:12Z</time>
      </trkpt>
      <trkpt lat="43.75403" lon="7.01788">
        <ele>942</ele>
        <time>2009-11-21T11:59:22Z</time>
      </trkpt>
      <trkpt lat="43.75434" lon="7.01792">
        <ele>942</ele>
        <time>2009-11-21T11:59:32Z</time>
      </trkpt>
      <trkpt lat="43.7546" lon="7.01804">
        <ele>942</ele>
        <time>2009-11-21T11:59:42Z</time>
      </trkpt>
      <trkpt lat="43.75493" lon="7.01811">
        <ele>942</ele>
        <time>2009-11-21T11:59:52Z</time>
      </trkpt>
      <trkpt lat="43.75538" lon="7.01822">
        <ele>942</ele>
        <time>2009-11-21T12:00:02Z</time>
      </trkpt>
      <trkpt lat="43.75604" lon="7.01834">
        <ele>942</ele>
        <time>2009-11-21T12:00:12Z</time>
      </trkpt>
      <trkpt lat="43.75643" lon="7.01846">
        <ele>942</ele>
        <time>2009-11-21T12:00:22Z</time>
      </trkpt>
      <trkpt lat="43.75674" lon="7.01856">
        <ele>944</ele>
        <time>2009-11-21T12:00:32Z</time>
      </trkpt>
      <trkpt lat="43.75708" lon="7.01868">
        <ele>946</ele>
        <time>2009-11-21T12:00:42Z</time>
      </trkpt>
      <trkpt lat="43.75745" lon="7.0188">
        <ele>948</ele>
        <time>2009-11-21T12:00:52Z</time>
      </trkpt>
      <trkpt lat="43.75777" lon="7.01894">
        <ele>949</ele>
        <time>2009-11-21T12:01:02Z</time>
      </trkpt>
      <trkpt lat="43.75799" lon="7.01904">
        <ele>950</ele>
        <time>2009-11-21T12:01:12Z</time>
      </trkpt>
      <trkpt lat="43.75806" lon="7.01908">
        <ele>950</ele>
        <time>2009-11-21T12:01:33Z</time>
      </trkpt>
      <trkpt lat="43.75807" lon="7.01911">
        <ele>950</ele>
        <time>2009-11-21T12:01:43Z</time>
      </trkpt>
      <trkpt lat="43.75806" lon="7.01912">
        <ele>950</ele>
        <time>2009-11-21T12:01:54Z</time>
      </trkpt>
      <trkpt lat="43.75805" lon="7.01912">
        <ele>950</ele>
        <time>2009-11-21T12:01:57Z</time>
      </trkpt>
      <trkpt lat="43.75804" lon="7.01913">
        <ele>950</ele>
        <time>2009-11-21T12:02:15Z</time>
      </trkpt>
      <trkpt lat="43.75802" lon="7.01911">
        <ele>950</ele>
        <time>2009-11-21T12:02:40Z</time>
      </trkpt>
      <trkpt lat="43.758" lon="7.01912">
        <ele>950</ele>
        <time>2009-11-21T12:02:57Z</time>
      </trkpt>
      <trkpt lat="43.75799" lon="7.01913">
        <ele>950</ele>
        <time>2009-11-21T12:03:13Z</time>
      </trkpt>
      <trkpt lat="43.758" lon="7.01914">
        <ele>948</ele>
        <time>2009-11-21T12:03:27Z</time>
      </trkpt>
      <trkpt lat="43.75799" lon="7.01913">
        <ele>947</ele>
        <time>2009-11-21T12:03:46Z</time>
      </trkpt>
      <trkpt lat="43.75794" lon="7.01899">
        <ele>947</ele>
        <time>2009-11-21T12:03:56Z</time>
      </trkpt>
      <trkpt lat="43.75796" lon="7.01879">
        <ele>947</ele>
        <time>2009-11-21T12:04:06Z</time>
      </trkpt>
      <trkpt lat="43.75797" lon="7.01856">
        <ele>947</ele>
        <time>2009-11-21T12:04:16Z</time>
      </trkpt>
      <trkpt lat="43.75796" lon="7.01829">
        <ele>947</ele>
        <time>2009-11-21T12:04:26Z</time>
      </trkpt>
      <trkpt lat="43.75795" lon="7.01802">
        <ele>948</ele>
        <time>2009-11-21T12:04:36Z</time>
      </trkpt>
      <trkpt lat="43.75796" lon="7.01776">
        <ele>949</ele>
        <time>2009-11-21T12:04:46Z</time>
      </trkpt>
      <trkpt lat="43.75798" lon="7.01745">
        <ele>949</ele>
        <time>2009-11-21T12:04:56Z</time>
      </trkpt>
      <trkpt lat="43.75806" lon="7.01713">
        <ele>949</ele>
        <time>2009-11-21T12:05:06Z</time>
      </trkpt>
      <trkpt lat="43.75802" lon="7.01682">
        <ele>950</ele>
        <time>2009-11-21T12:05:16Z</time>
      </trkpt>
      <trkpt lat="43.75791" lon="7.01654">
        <ele>951</ele>
        <time>2009-11-21T12:05:26Z</time>
      </trkpt>
      <trkpt lat="43.75788" lon="7.01622">
        <ele>954</ele>
        <time>2009-11-21T12:05:36Z</time>
      </trkpt>
      <trkpt lat="43.75797" lon="7.01589">
        <ele>955</ele>
        <time>2009-11-21T12:05:46Z</time>
      </trkpt>
      <trkpt lat="43.75816" lon="7.01564">
        <ele>955</ele>
        <time>2009-11-21T12:05:56Z</time>
      </trkpt>
      <trkpt lat="43.75841" lon="7.01543">
        <ele>955</ele>
        <time>2009-11-21T12:06:06Z</time>
      </trkpt>
      <trkpt lat="43.7587" lon="7.01524">
        <ele>953</ele>
        <time>2009-11-21T12:06:16Z</time>
      </trkpt>
      <trkpt lat="43.75872" lon="7.01525">
        <ele>950</ele>
        <time>2009-11-21T12:06:26Z</time>
      </trkpt>
      <trkpt lat="43.75874" lon="7.01525">
        <ele>948</ele>
        <time>2009-11-21T12:06:51Z</time>
      </trkpt>
      <trkpt lat="43.75904" lon="7.01511">
        <ele>948</ele>
        <time>2009-11-21T12:07:01Z</time>
      </trkpt>
      <trkpt lat="43.7595" lon="7.01497">
        <ele>946</ele>
        <time>2009-11-21T12:07:11Z</time>
      </trkpt>
      <trkpt lat="43.75998" lon="7.01477">
        <ele>944</ele>
        <time>2009-11-21T12:07:21Z</time>
      </trkpt>
      <trkpt lat="43.76041" lon="7.01455">
        <ele>940</ele>
        <time>2009-11-21T12:07:31Z</time>
      </trkpt>
      <trkpt lat="43.76091" lon="7.01451">
        <ele>940</ele>
        <time>2009-11-21T12:07:41Z</time>
      </trkpt>
      <trkpt lat="43.76144" lon="7.01451">
        <ele>940</ele>
        <time>2009-11-21T12:07:51Z</time>
      </trkpt>
      <trkpt lat="43.76158" lon="7.01412">
        <ele>940</ele>
        <time>2009-11-21T12:08:01Z</time>
      </trkpt>
      <trkpt lat="43.76181" lon="7.01388">
        <ele>941</ele>
        <time>2009-11-21T12:08:11Z</time>
      </trkpt>
      <trkpt lat="43.76205" lon="7.01374">
        <ele>942</ele>
        <time>2009-11-21T12:08:21Z</time>
      </trkpt>
      <trkpt lat="43.76204" lon="7.01343">
        <ele>942</ele>
        <time>2009-11-21T12:08:31Z</time>
      </trkpt>
      <trkpt lat="43.76204" lon="7.01331">
        <ele>945</ele>
        <time>2009-11-21T12:08:48Z</time>
      </trkpt>
      <trkpt lat="43.76217" lon="7.01314">
        <ele>945</ele>
        <time>2009-11-21T12:08:58Z</time>
      </trkpt>
      <trkpt lat="43.76257" lon="7.013">
        <ele>945</ele>
        <time>2009-11-21T12:09:08Z</time>
      </trkpt>
      <trkpt lat="43.76267" lon="7.01269">
        <ele>945</ele>
        <time>2009-11-21T12:09:18Z</time>
      </trkpt>
      <trkpt lat="43.76299" lon="7.01221">
        <ele>945</ele>
        <time>2009-11-21T12:09:28Z</time>
      </trkpt>
      <trkpt lat="43.76301" lon="7.01177">
        <ele>945</ele>
        <time>2009-11-21T12:09:38Z</time>
      </trkpt>
      <trkpt lat="43.76299" lon="7.0114">
        <ele>946</ele>
        <time>2009-11-21T12:09:48Z</time>
      </trkpt>
      <trkpt lat="43.76314" lon="7.01125">
        <ele>946</ele>
        <time>2009-11-21T12:09:59Z</time>
      </trkpt>
      <trkpt lat="43.76335" lon="7.0112">
        <ele>946</ele>
        <time>2009-11-21T12:10:09Z</time>
      </trkpt>
      <trkpt lat="43.76348" lon="7.01114">
        <ele>947</ele>
        <time>2009-11-21T12:10:19Z</time>
      </trkpt>
      <trkpt lat="43.76366" lon="7.01109">
        <ele>949</ele>
        <time>2009-11-21T12:10:30Z</time>
      </trkpt>
      <trkpt lat="43.76379" lon="7.01104">
        <ele>950</ele>
        <time>2009-11-21T12:10:40Z</time>
      </trkpt>
      <trkpt lat="43.76373" lon="7.01081">
        <ele>952</ele>
        <time>2009-11-21T12:10:50Z</time>
      </trkpt>
      <trkpt lat="43.76362" lon="7.01048">
        <ele>955</ele>
        <time>2009-11-21T12:11:00Z</time>
      </trkpt>
      <trkpt lat="43.76341" lon="7.01017">
        <ele>957</ele>
        <time>2009-11-21T12:11:10Z</time>
      </trkpt>
      <trkpt lat="43.76317" lon="7.00989">
        <ele>957</ele>
        <time>2009-11-21T12:11:20Z</time>
      </trkpt>
      <trkpt lat="43.76326" lon="7.00939">
        <ele>957</ele>
        <time>2009-11-21T12:11:31Z</time>
      </trkpt>
      <trkpt lat="43.76318" lon="7.00894">
        <ele>957</ele>
        <time>2009-11-21T12:11:41Z</time>
      </trkpt>
      <trkpt lat="43.76304" lon="7.00854">
        <ele>957</ele>
        <time>2009-11-21T12:11:51Z</time>
      </trkpt>
      <trkpt lat="43.76297" lon="7.00809">
        <ele>959</ele>
        <time>2009-11-21T12:12:01Z</time>
      </trkpt>
      <trkpt lat="43.76279" lon="7.00765">
        <ele>960</ele>
        <time>2009-11-21T12:12:11Z</time>
      </trkpt>
      <trkpt lat="43.76258" lon="7.00736">
        <ele>961</ele>
        <time>2009-11-21T12:12:21Z</time>
      </trkpt>
      <trkpt lat="43.76255" lon="7.00721">
        <ele>961</ele>
        <time>2009-11-21T12:12:39Z</time>
      </trkpt>
      <trkpt lat="43.76256" lon="7.00718">
        <ele>961</ele>
        <time>2009-11-21T12:12:49Z</time>
      </trkpt>
      <trkpt lat="43.76256" lon="7.00717">
        <ele>960</ele>
        <time>2009-11-21T12:12:59Z</time>
      </trkpt>
      <trkpt lat="43.76257" lon="7.00716">
        <ele>958</ele>
        <time>2009-11-21T12:13:15Z</time>
      </trkpt>
      <trkpt lat="43.76256" lon="7.00717">
        <ele>962</ele>
        <time>2009-11-21T12:13:20Z</time>
      </trkpt>
      <trkpt lat="43.76256" lon="7.00719">
        <ele>963</ele>
        <time>2009-11-21T12:13:35Z</time>
      </trkpt>
      <trkpt lat="43.76258" lon="7.00729">
        <ele>963</ele>
        <time>2009-11-21T12:13:47Z</time>
      </trkpt>
      <trkpt lat="43.7627" lon="7.00746">
        <ele>963</ele>
        <time>2009-11-21T12:13:57Z</time>
      </trkpt>
      <trkpt lat="43.76295" lon="7.00783">
        <ele>963</ele>
        <time>2009-11-21T12:14:08Z</time>
      </trkpt>
      <trkpt lat="43.76302" lon="7.00814">
        <ele>963</ele>
        <time>2009-11-21T12:14:18Z</time>
      </trkpt>
      <trkpt lat="43.76308" lon="7.00851">
        <ele>961</ele>
        <time>2009-11-21T12:14:28Z</time>
      </trkpt>
      <trkpt lat="43.76315" lon="7.00881">
        <ele>961</ele>
        <time>2009-11-21T12:14:38Z</time>
      </trkpt>
      <trkpt lat="43.7632" lon="7.00922">
        <ele>961</ele>
        <time>2009-11-21T12:14:48Z</time>
      </trkpt>
      <trkpt lat="43.76323" lon="7.00953">
        <ele>957</ele>
        <time>2009-11-21T12:14:58Z</time>
      </trkpt>
      <trkpt lat="43.76319" lon="7.00979">
        <ele>952</ele>
        <time>2009-11-21T12:15:08Z</time>
      </trkpt>
      <trkpt lat="43.76329" lon="7.00996">
        <ele>952</ele>
        <time>2009-11-21T12:15:19Z</time>
      </trkpt>
      <trkpt lat="43.76331" lon="7.01">
        <ele>952</ele>
        <time>2009-11-21T12:15:39Z</time>
      </trkpt>
      <trkpt lat="43.7633" lon="7.01">
        <ele>954</ele>
        <time>2009-11-21T12:15:58Z</time>
      </trkpt>
      <trkpt lat="43.76328" lon="7.00998">
        <ele>958</ele>
        <time>2009-11-21T12:16:08Z</time>
      </trkpt>
      <trkpt lat="43.76325" lon="7.00997">
        <ele>964</ele>
        <time>2009-11-21T12:16:21Z</time>
      </trkpt>
      <trkpt lat="43.76338" lon="7.0101">
        <ele>965</ele>
        <time>2009-11-21T12:16:31Z</time>
      </trkpt>
      <trkpt lat="43.76364" lon="7.01039">
        <ele>962</ele>
        <time>2009-11-21T12:16:41Z</time>
      </trkpt>
      <trkpt lat="43.76378" lon="7.01095">
        <ele>961</ele>
        <time>2009-11-21T12:16:51Z</time>
      </trkpt>
      <trkpt lat="43.76339" lon="7.01119">
        <ele>955</ele>
        <time>2009-11-21T12:17:01Z</time>
      </trkpt>
      <trkpt lat="43.76299" lon="7.01149">
        <ele>949</ele>
        <time>2009-11-21T12:17:11Z</time>
      </trkpt>
      <trkpt lat="43.76298" lon="7.01152">
        <ele>947</ele>
        <time>2009-11-21T12:17:21Z</time>
      </trkpt>
      <trkpt lat="43.76309" lon="7.01172">
        <ele>946</ele>
        <time>2009-11-21T12:17:31Z</time>
      </trkpt>
      <trkpt lat="43.76294" lon="7.0124">
        <ele>946</ele>
        <time>2009-11-21T12:17:41Z</time>
      </trkpt>
      <trkpt lat="43.76273" lon="7.01278">
        <ele>946</ele>
        <time>2009-11-21T12:17:51Z</time>
      </trkpt>
      <trkpt lat="43.76247" lon="7.01307">
        <ele>946</ele>
        <time>2009-11-21T12:18:01Z</time>
      </trkpt>
      <trkpt lat="43.76214" lon="7.0133">
        <ele>946</ele>
        <time>2009-11-21T12:18:11Z</time>
      </trkpt>
      <trkpt lat="43.76213" lon="7.01369">
        <ele>946</ele>
        <time>2009-11-21T12:18:21Z</time>
      </trkpt>
      <trkpt lat="43.76187" lon="7.01394">
        <ele>946</ele>
        <time>2009-11-21T12:18:31Z</time>
      </trkpt>
      <trkpt lat="43.76168" lon="7.01413">
        <ele>944</ele>
        <time>2009-11-21T12:18:41Z</time>
      </trkpt>
      <trkpt lat="43.7616" lon="7.01446">
        <ele>942</ele>
        <time>2009-11-21T12:18:51Z</time>
      </trkpt>
      <trkpt lat="43.76143" lon="7.01453">
        <ele>940</ele>
        <time>2009-11-21T12:19:01Z</time>
      </trkpt>
      <trkpt lat="43.76114" lon="7.01456">
        <ele>940</ele>
        <time>2009-11-21T12:19:11Z</time>
      </trkpt>
      <trkpt lat="43.76087" lon="7.01458">
        <ele>940</ele>
        <time>2009-11-21T12:19:21Z</time>
      </trkpt>
      <trkpt lat="43.76071" lon="7.01461">
        <ele>940</ele>
        <time>2009-11-21T12:19:31Z</time>
      </trkpt>
      <trkpt lat="43.76055" lon="7.01465">
        <ele>940</ele>
        <time>2009-11-21T12:19:41Z</time>
      </trkpt>
      <trkpt lat="43.76033" lon="7.01466">
        <ele>940</ele>
        <time>2009-11-21T12:19:51Z</time>
      </trkpt>
      <trkpt lat="43.76016" lon="7.01475">
        <ele>941</ele>
        <time>2009-11-21T12:20:01Z</time>
      </trkpt>
      <trkpt lat="43.75996" lon="7.01485">
        <ele>943</ele>
        <time>2009-11-21T12:20:11Z</time>
      </trkpt>
      <trkpt lat="43.75981" lon="7.01491">
        <ele>944</ele>
        <time>2009-11-21T12:20:21Z</time>
      </trkpt>
      <trkpt lat="43.75962" lon="7.01499">
        <ele>945</ele>
        <time>2009-11-21T12:20:31Z</time>
      </trkpt>
      <trkpt lat="43.75945" lon="7.01504">
        <ele>945</ele>
        <time>2009-11-21T12:20:41Z</time>
      </trkpt>
      <trkpt lat="43.75926" lon="7.01508">
        <ele>946</ele>
        <time>2009-11-21T12:20:51Z</time>
      </trkpt>
      <trkpt lat="43.75909" lon="7.01514">
        <ele>946</ele>
        <time>2009-11-21T12:21:01Z</time>
      </trkpt>
      <trkpt lat="43.75892" lon="7.01522">
        <ele>948</ele>
        <time>2009-11-21T12:21:11Z</time>
      </trkpt>
      <trkpt lat="43.75873" lon="7.01532">
        <ele>949</ele>
        <time>2009-11-21T12:21:21Z</time>
      </trkpt>
      <trkpt lat="43.75854" lon="7.01543">
        <ele>950</ele>
        <time>2009-11-21T12:21:31Z</time>
      </trkpt>
      <trkpt lat="43.75837" lon="7.01556">
        <ele>952</ele>
        <time>2009-11-21T12:21:41Z</time>
      </trkpt>
      <trkpt lat="43.75823" lon="7.01569">
        <ele>953</ele>
        <time>2009-11-21T12:21:51Z</time>
      </trkpt>
      <trkpt lat="43.75809" lon="7.0158">
        <ele>953</ele>
        <time>2009-11-21T12:22:01Z</time>
      </trkpt>
      <trkpt lat="43.75794" lon="7.01571">
        <ele>953</ele>
        <time>2009-11-21T12:22:11Z</time>
      </trkpt>
      <trkpt lat="43.75792" lon="7.01569">
        <ele>954</ele>
        <time>2009-11-21T12:22:29Z</time>
      </trkpt>
      <trkpt lat="43.7579" lon="7.01568">
        <ele>956</ele>
        <time>2009-11-21T12:22:45Z</time>
      </trkpt>
      <trkpt lat="43.75789" lon="7.01568">
        <ele>958</ele>
        <time>2009-11-21T12:22:57Z</time>
      </trkpt>
      <trkpt lat="43.75788" lon="7.01567">
        <ele>959</ele>
        <time>2009-11-21T12:23:12Z</time>
      </trkpt>
      <trkpt lat="43.75787" lon="7.01566">
        <ele>960</ele>
        <time>2009-11-21T12:23:28Z</time>
      </trkpt>
      <trkpt lat="43.75788" lon="7.01568">
        <ele>960</ele>
        <time>2009-11-21T12:23:49Z</time>
      </trkpt>
      <trkpt lat="43.7579" lon="7.01573">
        <ele>960</ele>
        <time>2009-11-21T12:24:04Z</time>
      </trkpt>
      <trkpt lat="43.7579" lon="7.01571">
        <ele>960</ele>
        <time>2009-11-21T12:24:24Z</time>
      </trkpt>
      <trkpt lat="43.75803" lon="7.01542">
        <ele>959</ele>
        <time>2009-11-21T12:24:34Z</time>
      </trkpt>
      <trkpt lat="43.75828" lon="7.01525">
        <ele>954</ele>
        <time>2009-11-21T12:24:44Z</time>
      </trkpt>
      <trkpt lat="43.75851" lon="7.01505">
        <ele>950</ele>
        <time>2009-11-21T12:24:54Z</time>
      </trkpt>
      <trkpt lat="43.7588" lon="7.01481">
        <ele>946</ele>
        <time>2009-11-21T12:25:04Z</time>
      </trkpt>
      <trkpt lat="43.75909" lon="7.0146">
        <ele>938</ele>
        <time>2009-11-21T12:25:14Z</time>
      </trkpt>
      <trkpt lat="43.75928" lon="7.01453">
        <ele>933</ele>
        <time>2009-11-21T12:25:25Z</time>
      </trkpt>
      <trkpt lat="43.75928" lon="7.0145">
        <ele>933</ele>
        <time>2009-11-21T12:25:36Z</time>
      </trkpt>
      <trkpt lat="43.75928" lon="7.01447">
        <ele>933</ele>
        <time>2009-11-21T12:25:48Z</time>
      </trkpt>
      <trkpt lat="43.75956" lon="7.01433">
        <ele>933</ele>
        <time>2009-11-21T12:25:58Z</time>
      </trkpt>
      <trkpt lat="43.75989" lon="7.01412">
        <ele>927</ele>
        <time>2009-11-21T12:26:08Z</time>
      </trkpt>
      <trkpt lat="43.76012" lon="7.01383">
        <ele>920</ele>
        <time>2009-11-21T12:26:18Z</time>
      </trkpt>
      <trkpt lat="43.76028" lon="7.01352">
        <ele>915</ele>
        <time>2009-11-21T12:26:28Z</time>
      </trkpt>
      <trkpt lat="43.76047" lon="7.01328">
        <ele>909</ele>
        <time>2009-11-21T12:26:38Z</time>
      </trkpt>
      <trkpt lat="43.76047" lon="7.01306">
        <ele>908</ele>
        <time>2009-11-21T12:26:52Z</time>
      </trkpt>
      <trkpt lat="43.76053" lon="7.01288">
        <ele>905</ele>
        <time>2009-11-21T12:27:02Z</time>
      </trkpt>
      <trkpt lat="43.76058" lon="7.0126">
        <ele>905</ele>
        <time>2009-11-21T12:27:13Z</time>
      </trkpt>
      <trkpt lat="43.76053" lon="7.01253">
        <ele>904</ele>
        <time>2009-11-21T12:27:23Z</time>
      </trkpt>
      <trkpt lat="43.76046" lon="7.0121">
        <ele>901</ele>
        <time>2009-11-21T12:27:33Z</time>
      </trkpt>
      <trkpt lat="43.7605" lon="7.01193">
        <ele>899</ele>
        <time>2009-11-21T12:27:45Z</time>
      </trkpt>
      <trkpt lat="43.76051" lon="7.01193">
        <ele>899</ele>
        <time>2009-11-21T12:28:04Z</time>
      </trkpt>
      <trkpt lat="43.76053" lon="7.01189">
        <ele>898</ele>
        <time>2009-11-21T12:28:23Z</time>
      </trkpt>
      <trkpt lat="43.76052" lon="7.01182">
        <ele>896</ele>
        <time>2009-11-21T12:28:33Z</time>
      </trkpt>
      <trkpt lat="43.76051" lon="7.01134">
        <ele>891</ele>
        <time>2009-11-21T12:28:43Z</time>
      </trkpt>
      <trkpt lat="43.76052" lon="7.01101">
        <ele>886</ele>
        <time>2009-11-21T12:28:53Z</time>
      </trkpt>
      <trkpt lat="43.7605" lon="7.01058">
        <ele>883</ele>
        <time>2009-11-21T12:29:03Z</time>
      </trkpt>
      <trkpt lat="43.76048" lon="7.0102">
        <ele>879</ele>
        <time>2009-11-21T12:29:13Z</time>
      </trkpt>
      <trkpt lat="43.76048" lon="7.00998">
        <ele>873</ele>
        <time>2009-11-21T12:29:24Z</time>
      </trkpt>
      <trkpt lat="43.76049" lon="7.01007">
        <ele>867</ele>
        <time>2009-11-21T12:29:34Z</time>
      </trkpt>
      <trkpt lat="43.76039" lon="7.01017">
        <ele>859</ele>
        <time>2009-11-21T12:29:44Z</time>
      </trkpt>
      <trkpt lat="43.76034" lon="7.01006">
        <ele>855</ele>
        <time>2009-11-21T12:29:54Z</time>
      </trkpt>
      <trkpt lat="43.76023" lon="7.01034">
        <ele>848</ele>
        <time>2009-11-21T12:30:04Z</time>
      </trkpt>
      <trkpt lat="43.76008" lon="7.01071">
        <ele>844</ele>
        <time>2009-11-21T12:30:15Z</time>
      </trkpt>
      <trkpt lat="43.7599" lon="7.01087">
        <ele>837</ele>
        <time>2009-11-21T12:30:25Z</time>
      </trkpt>
      <trkpt lat="43.75965" lon="7.01113">
        <ele>835</ele>
        <time>2009-11-21T12:30:35Z</time>
      </trkpt>
      <trkpt lat="43.75937" lon="7.01146">
        <ele>833</ele>
        <time>2009-11-21T12:30:46Z</time>
      </trkpt>
      <trkpt lat="43.75921" lon="7.01149">
        <ele>831</ele>
        <time>2009-11-21T12:30:56Z</time>
      </trkpt>
      <trkpt lat="43.75917" lon="7.01148">
        <ele>831</ele>
        <time>2009-11-21T12:31:12Z</time>
      </trkpt>
      <trkpt lat="43.75918" lon="7.01135">
        <ele>831</ele>
        <time>2009-11-21T12:31:22Z</time>
      </trkpt>
      <trkpt lat="43.75903" lon="7.01137">
        <ele>827</ele>
        <time>2009-11-21T12:31:32Z</time>
      </trkpt>
      <trkpt lat="43.75906" lon="7.0112">
        <ele>822</ele>
        <time>2009-11-21T12:31:42Z</time>
      </trkpt>
      <trkpt lat="43.75912" lon="7.01125">
        <ele>815</ele>
        <time>2009-11-21T12:31:53Z</time>
      </trkpt>
      <trkpt lat="43.75905" lon="7.01134">
        <ele>805</ele>
        <time>2009-11-21T12:32:03Z</time>
      </trkpt>
      <trkpt lat="43.75894" lon="7.01113">
        <ele>806</ele>
        <time>2009-11-21T12:32:15Z</time>
      </trkpt>
      <trkpt lat="43.75895" lon="7.01116">
        <ele>806</ele>
        <time>2009-11-21T12:32:26Z</time>
      </trkpt>
      <trkpt lat="43.75882" lon="7.01116">
        <ele>805</ele>
        <time>2009-11-21T12:32:37Z</time>
      </trkpt>
      <trkpt lat="43.75878" lon="7.01099">
        <ele>807</ele>
        <time>2009-11-21T12:32:48Z</time>
      </trkpt>
      <trkpt lat="43.7588" lon="7.01102">
        <ele>798</ele>
        <time>2009-11-21T12:33:03Z</time>
      </trkpt>
      <trkpt lat="43.75875" lon="7.01097">
        <ele>793</ele>
        <time>2009-11-21T12:33:14Z</time>
      </trkpt>
      <trkpt lat="43.75861" lon="7.01103">
        <ele>793</ele>
        <time>2009-11-21T12:33:24Z</time>
      </trkpt>
      <trkpt lat="43.75848" lon="7.01104">
        <ele>793</ele>
        <time>2009-11-21T12:33:35Z</time>
      </trkpt>
      <trkpt lat="43.75844" lon="7.01086">
        <ele>793</ele>
        <time>2009-11-21T12:33:49Z</time>
      </trkpt>
      <trkpt lat="43.75841" lon="7.01082">
        <ele>793</ele>
        <time>2009-11-21T12:34:04Z</time>
      </trkpt>
      <trkpt lat="43.75836" lon="7.01076">
        <ele>787</ele>
        <time>2009-11-21T12:34:14Z</time>
      </trkpt>
      <trkpt lat="43.75821" lon="7.01083">
        <ele>780</ele>
        <time>2009-11-21T12:34:24Z</time>
      </trkpt>
      <trkpt lat="43.75797" lon="7.01099">
        <ele>776</ele>
        <time>2009-11-21T12:34:34Z</time>
      </trkpt>
      <trkpt lat="43.75767" lon="7.01098">
        <ele>773</ele>
        <time>2009-11-21T12:34:44Z</time>
      </trkpt>
      <trkpt lat="43.7574" lon="7.01085">
        <ele>766</ele>
        <time>2009-11-21T12:34:54Z</time>
      </trkpt>
      <trkpt lat="43.757" lon="7.01075">
        <ele>757</ele>
        <time>2009-11-21T12:35:04Z</time>
      </trkpt>
      <trkpt lat="43.7568" lon="7.01053">
        <ele>749</ele>
        <time>2009-11-21T12:35:14Z</time>
      </trkpt>
      <trkpt lat="43.75665" lon="7.01049">
        <ele>748</ele>
        <time>2009-11-21T12:35:24Z</time>
      </trkpt>
      <trkpt lat="43.75638" lon="7.01051">
        <ele>748</ele>
        <time>2009-11-21T12:35:34Z</time>
      </trkpt>
      <trkpt lat="43.75615" lon="7.01053">
        <ele>748</ele>
        <time>2009-11-21T12:35:44Z</time>
      </trkpt>
      <trkpt lat="43.75588" lon="7.01059">
        <ele>748</ele>
        <time>2009-11-21T12:35:54Z</time>
      </trkpt>
      <trkpt lat="43.75564" lon="7.01064">
        <ele>748</ele>
        <time>2009-11-21T12:36:04Z</time>
      </trkpt>
      <trkpt lat="43.75539" lon="7.01071">
        <ele>748</ele>
        <time>2009-11-21T12:36:14Z</time>
      </trkpt>
      <trkpt lat="43.7551" lon="7.01072">
        <ele>745</ele>
        <time>2009-11-21T12:36:24Z</time>
      </trkpt>
      <trkpt lat="43.755" lon="7.01071">
        <ele>740</ele>
        <time>2009-11-21T12:36:36Z</time>
      </trkpt>
      <trkpt lat="43.75493" lon="7.01069">
        <ele>737</ele>
        <time>2009-11-21T12:36:46Z</time>
      </trkpt>
      <trkpt lat="43.75465" lon="7.01076">
        <ele>733</ele>
        <time>2009-11-21T12:36:56Z</time>
      </trkpt>
      <trkpt lat="43.75441" lon="7.01073">
        <ele>728</ele>
        <time>2009-11-21T12:37:06Z</time>
      </trkpt>
      <trkpt lat="43.75409" lon="7.01068">
        <ele>724</ele>
        <time>2009-11-21T12:37:16Z</time>
      </trkpt>
      <trkpt lat="43.75384" lon="7.01044">
        <ele>723</ele>
        <time>2009-11-21T12:37:26Z</time>
      </trkpt>
      <trkpt lat="43.75358" lon="7.01013">
        <ele>723</ele>
        <time>2009-11-21T12:37:36Z</time>
      </trkpt>
      <trkpt lat="43.75336" lon="7.01005">
        <ele>723</ele>
        <time>2009-11-21T12:37:46Z</time>
      </trkpt>
      <trkpt lat="43.75318" lon="7.01022">
        <ele>727</ele>
        <time>2009-11-21T12:37:56Z</time>
      </trkpt>
      <trkpt lat="43.75296" lon="7.01055">
        <ele>728</ele>
        <time>2009-11-21T12:38:06Z</time>
      </trkpt>
      <trkpt lat="43.75271" lon="7.01077">
        <ele>730</ele>
        <time>2009-11-21T12:38:16Z</time>
      </trkpt>
      <trkpt lat="43.75225" lon="7.01077">
        <ele>730</ele>
        <time>2009-11-21T12:38:26Z</time>
      </trkpt>
      <trkpt lat="43.7519" lon="7.0108">
        <ele>726</ele>
        <time>2009-11-21T12:38:36Z</time>
      </trkpt>
      <trkpt lat="43.75168" lon="7.01077">
        <ele>723</ele>
        <time>2009-11-21T12:38:47Z</time>
      </trkpt>
      <trkpt lat="43.75163" lon="7.01076">
        <ele>722</ele>
        <time>2009-11-21T12:38:57Z</time>
      </trkpt>
      <trkpt lat="43.75145" lon="7.01075">
        <ele>720</ele>
        <time>2009-11-21T12:39:07Z</time>
      </trkpt>
      <trkpt lat="43.75128" lon="7.01076">
        <ele>716</ele>
        <time>2009-11-21T12:39:17Z</time>
      </trkpt>
      <trkpt lat="43.7511" lon="7.01063">
        <ele>712</ele>
        <time>2009-11-21T12:39:27Z</time>
      </trkpt>
      <trkpt lat="43.75093" lon="7.01039">
        <ele>708</ele>
        <time>2009-11-21T12:39:37Z</time>
      </trkpt>
      <trkpt lat="43.75083" lon="7.01036">
        <ele>707</ele>
        <time>2009-11-21T12:39:47Z</time>
      </trkpt>
      <trkpt lat="43.75081" lon="7.01058">
        <ele>703</ele>
        <time>2009-11-21T12:39:57Z</time>
      </trkpt>
      <trkpt lat="43.75069" lon="7.01047">
        <ele>699</ele>
        <time>2009-11-21T12:40:08Z</time>
      </trkpt>
      <trkpt lat="43.75063" lon="7.01065">
        <ele>696</ele>
        <time>2009-11-21T12:40:25Z</time>
      </trkpt>
      <trkpt lat="43.75054" lon="7.01053">
        <ele>695</ele>
        <time>2009-11-21T12:40:35Z</time>
      </trkpt>
      <trkpt lat="43.75048" lon="7.01022">
        <ele>688</ele>
        <time>2009-11-21T12:40:45Z</time>
      </trkpt>
      <trkpt lat="43.75038" lon="7.01006">
        <ele>685</ele>
        <time>2009-11-21T12:40:56Z</time>
      </trkpt>
      <trkpt lat="43.75037" lon="7.00998">
        <ele>685</ele>
        <time>2009-11-21T12:41:08Z</time>
      </trkpt>
      <trkpt lat="43.75032" lon="7.00992">
        <ele>683</ele>
        <time>2009-11-21T12:41:18Z</time>
      </trkpt>
      <trkpt lat="43.75025" lon="7.00983">
        <ele>679</ele>
        <time>2009-11-21T12:41:29Z</time>
      </trkpt>
      <trkpt lat="43.75018" lon="7.0098">
        <ele>674</ele>
        <time>2009-11-21T12:41:44Z</time>
      </trkpt>
      <trkpt lat="43.75016" lon="7.00978">
        <ele>671</ele>
        <time>2009-11-21T12:41:55Z</time>
      </trkpt>
      <trkpt lat="43.75009" lon="7.00968">
        <ele>671</ele>
        <time>2009-11-21T12:42:06Z</time>
      </trkpt>
      <trkpt lat="43.74996" lon="7.00952">
        <ele>671</ele>
        <time>2009-11-21T12:42:16Z</time>
      </trkpt>
      <trkpt lat="43.74983" lon="7.00939">
        <ele>668</ele>
        <time>2009-11-21T12:42:26Z</time>
      </trkpt>
      <trkpt lat="43.74982" lon="7.00936">
        <ele>664</ele>
        <time>2009-11-21T12:42:31Z</time>
      </trkpt>
      <trkpt lat="43.74983" lon="7.00934">
        <ele>662</ele>
        <time>2009-11-21T12:42:50Z</time>
      </trkpt>
      <trkpt lat="43.74985" lon="7.00935">
        <ele>661</ele>
        <time>2009-11-21T12:42:52Z</time>
      </trkpt>
      <trkpt lat="43.74984" lon="7.00935">
        <ele>660</ele>
        <time>2009-11-21T12:43:10Z</time>
      </trkpt>
      <trkpt lat="43.74978" lon="7.00935">
        <ele>656</ele>
        <time>2009-11-21T12:43:25Z</time>
      </trkpt>
      <trkpt lat="43.7497" lon="7.00929">
        <ele>655</ele>
        <time>2009-11-21T12:43:37Z</time>
      </trkpt>
      <trkpt lat="43.74956" lon="7.00915">
        <ele>654</ele>
        <time>2009-11-21T12:43:48Z</time>
      </trkpt>
      <trkpt lat="43.74937" lon="7.009">
        <ele>654</ele>
        <time>2009-11-21T12:43:58Z</time>
      </trkpt>
      <trkpt lat="43.74924" lon="7.00895">
        <ele>654</ele>
        <time>2009-11-21T12:44:08Z</time>
      </trkpt>
      <trkpt lat="43.74918" lon="7.00894">
        <ele>654</ele>
        <time>2009-11-21T12:44:22Z</time>
      </trkpt>
      <trkpt lat="43.74897" lon="7.00901">
        <ele>654</ele>
        <time>2009-11-21T12:44:32Z</time>
      </trkpt>
      <trkpt lat="43.74881" lon="7.00902">
        <ele>654</ele>
        <time>2009-11-21T12:44:42Z</time>
      </trkpt>
      <trkpt lat="43.74877" lon="7.00901">
        <ele>654</ele>
        <time>2009-11-21T12:44:53Z</time>
      </trkpt>
      <trkpt lat="43.74876" lon="7.00902">
        <ele>654</ele>
        <time>2009-11-21T12:45:09Z</time>
      </trkpt>
      <trkpt lat="43.74875" lon="7.00901">
        <ele>654</ele>
        <time>2009-11-21T12:45:33Z</time>
      </trkpt>
      <trkpt lat="43.74877" lon="7.00902">
        <ele>654</ele>
        <time>2009-11-21T12:45:46Z</time>
      </trkpt>
      <trkpt lat="43.74878" lon="7.00905">
        <ele>654</ele>
        <time>2009-11-21T12:46:05Z</time>
      </trkpt>
      <trkpt lat="43.74877" lon="7.00906">
        <ele>654</ele>
        <time>2009-11-21T12:46:19Z</time>
      </trkpt>
      <trkpt lat="43.74877" lon="7.00908">
        <ele>654</ele>
        <time>2009-11-21T12:46:38Z</time>
      </trkpt>
      <trkpt lat="43.74878" lon="7.00908">
        <ele>654</ele>
        <time>2009-11-21T12:46:50Z</time>
      </trkpt>
      <trkpt lat="43.74882" lon="7.0091">
        <ele>654</ele>
        <time>2009-11-21T12:47:03Z</time>
      </trkpt>
      <trkpt lat="43.74883" lon="7.00908">
        <ele>654</ele>
        <time>2009-11-21T12:47:15Z</time>
      </trkpt>
      <trkpt lat="43.74879" lon="7.00907">
        <ele>654</ele>
        <time>2009-11-21T12:47:26Z</time>
      </trkpt>
      <trkpt lat="43.74872" lon="7.00908">
        <ele>654</ele>
        <time>2009-11-21T12:47:38Z</time>
      </trkpt>
      <trkpt lat="43.74851" lon="7.00918">
        <ele>654</ele>
        <time>2009-11-21T12:47:48Z</time>
      </trkpt>
      <trkpt lat="43.74829" lon="7.00916">
        <ele>654</ele>
        <time>2009-11-21T12:47:58Z</time>
      </trkpt>
      <trkpt lat="43.74803" lon="7.00913">
        <ele>654</ele>
        <time>2009-11-21T12:48:08Z</time>
      </trkpt>
      <trkpt lat="43.74776" lon="7.00908">
        <ele>654</ele>
        <time>2009-11-21T12:48:18Z</time>
      </trkpt>
      <trkpt lat="43.74766" lon="7.00901">
        <ele>649</ele>
        <time>2009-11-21T12:48:29Z</time>
      </trkpt>
      <trkpt lat="43.74756" lon="7.009">
        <ele>648</ele>
        <time>2009-11-21T12:48:40Z</time>
      </trkpt>
      <trkpt lat="43.74743" lon="7.00913">
        <ele>648</ele>
        <time>2009-11-21T12:48:51Z</time>
      </trkpt>
      <trkpt lat="43.74745" lon="7.00914">
        <ele>648</ele>
        <time>2009-11-21T12:49:05Z</time>
      </trkpt>
      <trkpt lat="43.74745" lon="7.00917">
        <ele>648</ele>
        <time>2009-11-21T12:49:15Z</time>
      </trkpt>
      <trkpt lat="43.74735" lon="7.00927">
        <ele>649</ele>
        <time>2009-11-21T12:49:25Z</time>
      </trkpt>
      <trkpt lat="43.74724" lon="7.00943">
        <ele>649</ele>
        <time>2009-11-21T12:49:48Z</time>
      </trkpt>
      <trkpt lat="43.74725" lon="7.00944">
        <ele>649</ele>
        <time>2009-11-21T12:50:10Z</time>
      </trkpt>
      <trkpt lat="43.74726" lon="7.00947">
        <ele>649</ele>
        <time>2009-11-21T12:50:25Z</time>
      </trkpt>
      <trkpt lat="43.74727" lon="7.00946">
        <ele>649</ele>
        <time>2009-11-21T12:50:46Z</time>
      </trkpt>
      <trkpt lat="43.74728" lon="7.00945">
        <ele>649</ele>
        <time>2009-11-21T12:50:57Z</time>
      </trkpt>
      <trkpt lat="43.74726" lon="7.00944">
        <ele>649</ele>
        <time>2009-11-21T12:51:14Z</time>
      </trkpt>
      <trkpt lat="43.74725" lon="7.00942">
        <ele>649</ele>
        <time>2009-11-21T12:51:24Z</time>
      </trkpt>
      <trkpt lat="43.7473" lon="7.00949">
        <ele>649</ele>
        <time>2009-11-21T12:51:36Z</time>
      </trkpt>
      <trkpt lat="43.74719" lon="7.00956">
        <ele>649</ele>
        <time>2009-11-21T12:51:46Z</time>
      </trkpt>
      <trkpt lat="43.74717" lon="7.00955">
        <ele>649</ele>
        <time>2009-11-21T12:52:00Z</time>
      </trkpt>
      <trkpt lat="43.74712" lon="7.00962">
        <ele>647</ele>
        <time>2009-11-21T12:52:11Z</time>
      </trkpt>
      <trkpt lat="43.74705" lon="7.00966">
        <ele>645</ele>
        <time>2009-11-21T12:52:21Z</time>
      </trkpt>
      <trkpt lat="43.74672" lon="7.00983">
        <ele>641</ele>
        <time>2009-11-21T12:52:31Z</time>
      </trkpt>
      <trkpt lat="43.74645" lon="7.00994">
        <ele>638</ele>
        <time>2009-11-21T12:52:42Z</time>
      </trkpt>
      <trkpt lat="43.74616" lon="7.01">
        <ele>634</ele>
        <time>2009-11-21T12:52:52Z</time>
      </trkpt>
      <trkpt lat="43.74584" lon="7.00999">
        <ele>627</ele>
        <time>2009-11-21T12:53:02Z</time>
      </trkpt>
      <trkpt lat="43.7454" lon="7.00981">
        <ele>625</ele>
        <time>2009-11-21T12:53:12Z</time>
      </trkpt>
      <trkpt lat="43.74518" lon="7.00963">
        <ele>624</ele>
        <time>2009-11-21T12:53:23Z</time>
      </trkpt>
      <trkpt lat="43.74513" lon="7.00958">
        <ele>623</ele>
        <time>2009-11-21T12:53:33Z</time>
      </trkpt>
      <trkpt lat="43.74482" lon="7.00949">
        <ele>623</ele>
        <time>2009-11-21T12:53:43Z</time>
      </trkpt>
      <trkpt lat="43.74438" lon="7.00947">
        <ele>624</ele>
        <time>2009-11-21T12:53:54Z</time>
      </trkpt>
      <trkpt lat="43.74406" lon="7.00944">
        <ele>624</ele>
        <time>2009-11-21T12:54:04Z</time>
      </trkpt>
      <trkpt lat="43.74388" lon="7.00923">
        <ele>624</ele>
        <time>2009-11-21T12:54:14Z</time>
      </trkpt>
      <trkpt lat="43.74358" lon="7.0091">
        <ele>624</ele>
        <time>2009-11-21T12:54:25Z</time>
      </trkpt>
      <trkpt lat="43.74351" lon="7.00908">
        <ele>624</ele>
        <time>2009-11-21T12:54:35Z</time>
      </trkpt>
      <trkpt lat="43.74355" lon="7.00918">
        <ele>624</ele>
        <time>2009-11-21T12:54:47Z</time>
      </trkpt>
      <trkpt lat="43.74356" lon="7.00919">
        <ele>624</ele>
        <time>2009-11-21T12:54:48Z</time>
      </trkpt>
    </trkseg>
  </trk>
</gpx>